<?xml version="1.0" encoding="UTF-8" standalone="no" ?>
<gpx xmlns="http://www.topografix.com/GPX/1/1" xmlns:xsi="http://www.w3.org/2001/XMLSchema-instance" xsi:schemaLocation="http://www.topografix.com/GPX/1/1 http://www.topografix.com/GPX/1/1/gpx.xsd" version="1.1" creator="VisuGPX - https://www.visugpx.com">
  <metadata>
    <name>Belley / Colomieu1</name>
    <desc><![CDATA[Ain - Bugey.
boucle au départ de Belley.
passe à Vieugey, Pont de Thoys, Fontaine-Valin, Roche Percée, Pierre-Besse, La Craz, Colomieu, col de Sansennet, Moret, Pont de Thoys, Vieugey.]]></desc>
  </metadata>
  <trk>
    <name><![CDATA[20181001224501-Pmga4]]></name>
    <trkseg>
      <trkpt lat="45.7581" lon="5.68914">
        <ele>280.84</ele>
        <time>2012-03-28T11:40:48Z</time>
      </trkpt>
      <trkpt lat="45.75834" lon="5.68863">
        <ele>278.92</ele>
        <time>2012-03-28T11:41:05Z</time>
      </trkpt>
      <trkpt lat="45.75764" lon="5.68814">
        <ele>281.8</ele>
        <time>2012-03-28T11:41:33Z</time>
      </trkpt>
      <trkpt lat="45.75724" lon="5.68783">
        <ele>282.77</ele>
        <time>2012-03-28T11:41:47Z</time>
      </trkpt>
      <trkpt lat="45.75682" lon="5.68753">
        <ele>285.65</ele>
        <time>2012-03-28T11:42:02Z</time>
      </trkpt>
      <trkpt lat="45.75648" lon="5.68723">
        <ele>286.13</ele>
        <time>2012-03-28T11:42:15Z</time>
      </trkpt>
      <trkpt lat="45.75623" lon="5.68693">
        <ele>287.57</ele>
        <time>2012-03-28T11:42:26Z</time>
      </trkpt>
      <trkpt lat="45.75597" lon="5.68664">
        <ele>289.49</ele>
        <time>2012-03-28T11:42:39Z</time>
      </trkpt>
      <trkpt lat="45.75588" lon="5.6864">
        <ele>291.42</ele>
        <time>2012-03-28T11:42:50Z</time>
      </trkpt>
      <trkpt lat="45.75577" lon="5.68592">
        <ele>291.9</ele>
        <time>2012-03-28T11:43:01Z</time>
      </trkpt>
      <trkpt lat="45.75561" lon="5.68521">
        <ele>293.34</ele>
        <time>2012-03-28T11:43:15Z</time>
      </trkpt>
      <trkpt lat="45.75556" lon="5.68493">
        <ele>293.82</ele>
        <time>2012-03-28T11:43:20Z</time>
      </trkpt>
      <trkpt lat="45.75555" lon="5.68473">
        <ele>293.82</ele>
        <time>2012-03-28T11:43:23Z</time>
      </trkpt>
      <trkpt lat="45.75558" lon="5.68445">
        <ele>293.34</ele>
        <time>2012-03-28T11:43:27Z</time>
      </trkpt>
      <trkpt lat="45.75566" lon="5.68406">
        <ele>292.86</ele>
        <time>2012-03-28T11:43:39Z</time>
      </trkpt>
      <trkpt lat="45.75576" lon="5.68376">
        <ele>292.86</ele>
        <time>2012-03-28T11:43:50Z</time>
      </trkpt>
      <trkpt lat="45.75578" lon="5.68364">
        <ele>292.86</ele>
        <time>2012-03-28T11:43:52Z</time>
      </trkpt>
      <trkpt lat="45.75577" lon="5.68338">
        <ele>292.86</ele>
        <time>2012-03-28T11:43:56Z</time>
      </trkpt>
      <trkpt lat="45.75595" lon="5.68237">
        <ele>294.3</ele>
        <time>2012-03-28T11:44:13Z</time>
      </trkpt>
      <trkpt lat="45.75604" lon="5.68169">
        <ele>296.7</ele>
        <time>2012-03-28T11:44:38Z</time>
      </trkpt>
      <trkpt lat="45.75583" lon="5.68149">
        <ele>297.18</ele>
        <time>2012-03-28T11:44:45Z</time>
      </trkpt>
      <trkpt lat="45.75527" lon="5.68108">
        <ele>297.67</ele>
        <time>2012-03-28T11:44:59Z</time>
      </trkpt>
      <trkpt lat="45.75492" lon="5.68049">
        <ele>298.15</ele>
        <time>2012-03-28T11:45:14Z</time>
      </trkpt>
      <trkpt lat="45.75491" lon="5.68038">
        <ele>297.67</ele>
        <time>2012-03-28T11:45:16Z</time>
      </trkpt>
      <trkpt lat="45.75493" lon="5.68027">
        <ele>297.67</ele>
        <time>2012-03-28T11:45:18Z</time>
      </trkpt>
      <trkpt lat="45.75499" lon="5.68">
        <ele>298.15</ele>
        <time>2012-03-28T11:45:23Z</time>
      </trkpt>
      <trkpt lat="45.75496" lon="5.67969">
        <ele>297.67</ele>
        <time>2012-03-28T11:45:28Z</time>
      </trkpt>
      <trkpt lat="45.75492" lon="5.67957">
        <ele>298.15</ele>
        <time>2012-03-28T11:45:30Z</time>
      </trkpt>
      <trkpt lat="45.75487" lon="5.67945">
        <ele>298.15</ele>
        <time>2012-03-28T11:45:32Z</time>
      </trkpt>
      <trkpt lat="45.75414" lon="5.67856">
        <ele>295.74</ele>
        <time>2012-03-28T11:45:51Z</time>
      </trkpt>
      <trkpt lat="45.75343" lon="5.67751">
        <ele>295.26</ele>
        <time>2012-03-28T11:46:11Z</time>
      </trkpt>
      <trkpt lat="45.7533" lon="5.67728">
        <ele>294.3</ele>
        <time>2012-03-28T11:46:15Z</time>
      </trkpt>
      <trkpt lat="45.75312" lon="5.67666">
        <ele>293.82</ele>
        <time>2012-03-28T11:46:28Z</time>
      </trkpt>
      <trkpt lat="45.75293" lon="5.67586">
        <ele>294.78</ele>
        <time>2012-03-28T11:46:47Z</time>
      </trkpt>
      <trkpt lat="45.75283" lon="5.67506">
        <ele>296.22</ele>
        <time>2012-03-28T11:47:04Z</time>
      </trkpt>
      <trkpt lat="45.75295" lon="5.67438">
        <ele>300.07</ele>
        <time>2012-03-28T11:47:29Z</time>
      </trkpt>
      <trkpt lat="45.75288" lon="5.67401">
        <ele>302.95</ele>
        <time>2012-03-28T11:47:40Z</time>
      </trkpt>
      <trkpt lat="45.7529" lon="5.67364">
        <ele>301.99</ele>
        <time>2012-03-28T11:47:48Z</time>
      </trkpt>
      <trkpt lat="45.75302" lon="5.6725">
        <ele>299.59</ele>
        <time>2012-03-28T11:48:00Z</time>
      </trkpt>
      <trkpt lat="45.75304" lon="5.67209">
        <ele>300.07</ele>
        <time>2012-03-28T11:48:04Z</time>
      </trkpt>
      <trkpt lat="45.75302" lon="5.6719">
        <ele>299.11</ele>
        <time>2012-03-28T11:48:06Z</time>
      </trkpt>
      <trkpt lat="45.75296" lon="5.67173">
        <ele>298.63</ele>
        <time>2012-03-28T11:48:08Z</time>
      </trkpt>
      <trkpt lat="45.75292" lon="5.67164">
        <ele>298.15</ele>
        <time>2012-03-28T11:48:09Z</time>
      </trkpt>
      <trkpt lat="45.75287" lon="5.67155">
        <ele>297.18</ele>
        <time>2012-03-28T11:48:10Z</time>
      </trkpt>
      <trkpt lat="45.75282" lon="5.67145">
        <ele>296.7</ele>
        <time>2012-03-28T11:48:11Z</time>
      </trkpt>
      <trkpt lat="45.75257" lon="5.67103">
        <ele>293.34</ele>
        <time>2012-03-28T11:48:15Z</time>
      </trkpt>
      <trkpt lat="45.75242" lon="5.67067">
        <ele>291.42</ele>
        <time>2012-03-28T11:48:18Z</time>
      </trkpt>
      <trkpt lat="45.75238" lon="5.67055">
        <ele>290.94</ele>
        <time>2012-03-28T11:48:19Z</time>
      </trkpt>
      <trkpt lat="45.75236" lon="5.67044">
        <ele>290.46</ele>
        <time>2012-03-28T11:48:20Z</time>
      </trkpt>
      <trkpt lat="45.7523" lon="5.6701">
        <ele>287.57</ele>
        <time>2012-03-28T11:48:23Z</time>
      </trkpt>
      <trkpt lat="45.75225" lon="5.66938">
        <ele>282.77</ele>
        <time>2012-03-28T11:48:29Z</time>
      </trkpt>
      <trkpt lat="45.75218" lon="5.66904">
        <ele>279.4</ele>
        <time>2012-03-28T11:48:32Z</time>
      </trkpt>
      <trkpt lat="45.75208" lon="5.66886">
        <ele>279.88</ele>
        <time>2012-03-28T11:48:34Z</time>
      </trkpt>
      <trkpt lat="45.75164" lon="5.66841">
        <ele>278.92</ele>
        <time>2012-03-28T11:48:41Z</time>
      </trkpt>
      <trkpt lat="45.75159" lon="5.66833">
        <ele>278.44</ele>
        <time>2012-03-28T11:48:42Z</time>
      </trkpt>
      <trkpt lat="45.75142" lon="5.66787">
        <ele>275.07</ele>
        <time>2012-03-28T11:48:46Z</time>
      </trkpt>
      <trkpt lat="45.75138" lon="5.66758">
        <ele>273.15</ele>
        <time>2012-03-28T11:48:48Z</time>
      </trkpt>
      <trkpt lat="45.75135" lon="5.66676">
        <ele>269.31</ele>
        <time>2012-03-28T11:48:53Z</time>
      </trkpt>
      <trkpt lat="45.75125" lon="5.66599">
        <ele>266.42</ele>
        <time>2012-03-28T11:48:58Z</time>
      </trkpt>
      <trkpt lat="45.7512" lon="5.66561">
        <ele>264.98</ele>
        <time>2012-03-28T11:49:02Z</time>
      </trkpt>
      <trkpt lat="45.75109" lon="5.66502">
        <ele>261.14</ele>
        <time>2012-03-28T11:49:10Z</time>
      </trkpt>
      <trkpt lat="45.75117" lon="5.6648">
        <ele>259.69</ele>
        <time>2012-03-28T11:49:13Z</time>
      </trkpt>
      <trkpt lat="45.75135" lon="5.66463">
        <ele>257.77</ele>
        <time>2012-03-28T11:49:16Z</time>
      </trkpt>
      <trkpt lat="45.75188" lon="5.66431">
        <ele>253.93</ele>
        <time>2012-03-28T11:49:24Z</time>
      </trkpt>
      <trkpt lat="45.75217" lon="5.66416">
        <ele>251.52</ele>
        <time>2012-03-28T11:49:29Z</time>
      </trkpt>
      <trkpt lat="45.75242" lon="5.66408">
        <ele>249.12</ele>
        <time>2012-03-28T11:49:33Z</time>
      </trkpt>
      <trkpt lat="45.75268" lon="5.66402">
        <ele>247.2</ele>
        <time>2012-03-28T11:49:37Z</time>
      </trkpt>
      <trkpt lat="45.75301" lon="5.664">
        <ele>246.23</ele>
        <time>2012-03-28T11:49:42Z</time>
      </trkpt>
      <trkpt lat="45.75334" lon="5.66397">
        <ele>246.23</ele>
        <time>2012-03-28T11:49:49Z</time>
      </trkpt>
      <trkpt lat="45.75342" lon="5.66386">
        <ele>245.75</ele>
        <time>2012-03-28T11:49:51Z</time>
      </trkpt>
      <trkpt lat="45.75347" lon="5.66357">
        <ele>243.83</ele>
        <time>2012-03-28T11:49:54Z</time>
      </trkpt>
      <trkpt lat="45.75348" lon="5.66341">
        <ele>242.39</ele>
        <time>2012-03-28T11:49:56Z</time>
      </trkpt>
      <trkpt lat="45.75339" lon="5.66331">
        <ele>241.43</ele>
        <time>2012-03-28T11:49:59Z</time>
      </trkpt>
      <trkpt lat="45.7533" lon="5.66329">
        <ele>241.91</ele>
        <time>2012-03-28T11:50:01Z</time>
      </trkpt>
      <trkpt lat="45.75321" lon="5.66323">
        <ele>241.43</ele>
        <time>2012-03-28T11:50:03Z</time>
      </trkpt>
      <trkpt lat="45.75314" lon="5.6631">
        <ele>240.95</ele>
        <time>2012-03-28T11:50:05Z</time>
      </trkpt>
      <trkpt lat="45.75312" lon="5.66293">
        <ele>240.47</ele>
        <time>2012-03-28T11:50:07Z</time>
      </trkpt>
      <trkpt lat="45.75314" lon="5.66265">
        <ele>240.47</ele>
        <time>2012-03-28T11:50:10Z</time>
      </trkpt>
      <trkpt lat="45.75325" lon="5.66144">
        <ele>239.02</ele>
        <time>2012-03-28T11:50:26Z</time>
      </trkpt>
      <trkpt lat="45.75273" lon="5.66121">
        <ele>238.54</ele>
        <time>2012-03-28T11:50:41Z</time>
      </trkpt>
      <trkpt lat="45.75209" lon="5.66097">
        <ele>238.54</ele>
        <time>2012-03-28T11:50:57Z</time>
      </trkpt>
      <trkpt lat="45.75148" lon="5.66074">
        <ele>239.51</ele>
        <time>2012-03-28T11:51:12Z</time>
      </trkpt>
      <trkpt lat="45.75092" lon="5.66052">
        <ele>239.02</ele>
        <time>2012-03-28T11:51:24Z</time>
      </trkpt>
      <trkpt lat="45.75071" lon="5.66054">
        <ele>238.54</ele>
        <time>2012-03-28T11:51:28Z</time>
      </trkpt>
      <trkpt lat="45.75032" lon="5.66068">
        <ele>239.02</ele>
        <time>2012-03-28T11:51:36Z</time>
      </trkpt>
      <trkpt lat="45.74961" lon="5.66114">
        <ele>239.02</ele>
        <time>2012-03-28T11:51:51Z</time>
      </trkpt>
      <trkpt lat="45.74894" lon="5.66139">
        <ele>238.06</ele>
        <time>2012-03-28T11:52:04Z</time>
      </trkpt>
      <trkpt lat="45.7485" lon="5.6616">
        <ele>236.62</ele>
        <time>2012-03-28T11:52:12Z</time>
      </trkpt>
      <trkpt lat="45.74793" lon="5.66188">
        <ele>235.66</ele>
        <time>2012-03-28T11:52:25Z</time>
      </trkpt>
      <trkpt lat="45.74767" lon="5.66204">
        <ele>236.14</ele>
        <time>2012-03-28T11:52:38Z</time>
      </trkpt>
      <trkpt lat="45.74756" lon="5.66208">
        <ele>235.66</ele>
        <time>2012-03-28T11:52:51Z</time>
      </trkpt>
      <trkpt lat="45.74696" lon="5.66233">
        <ele>236.14</ele>
        <time>2012-03-28T11:53:05Z</time>
      </trkpt>
      <trkpt lat="45.74612" lon="5.66244">
        <ele>236.62</ele>
        <time>2012-03-28T11:53:21Z</time>
      </trkpt>
      <trkpt lat="45.7453" lon="5.66235">
        <ele>236.14</ele>
        <time>2012-03-28T11:53:37Z</time>
      </trkpt>
      <trkpt lat="45.74484" lon="5.66248">
        <ele>237.58</ele>
        <time>2012-03-28T11:53:47Z</time>
      </trkpt>
      <trkpt lat="45.74433" lon="5.66269">
        <ele>238.06</ele>
        <time>2012-03-28T11:53:59Z</time>
      </trkpt>
      <trkpt lat="45.74395" lon="5.66267">
        <ele>238.06</ele>
        <time>2012-03-28T11:54:08Z</time>
      </trkpt>
      <trkpt lat="45.74379" lon="5.66266">
        <ele>238.06</ele>
        <time>2012-03-28T11:54:12Z</time>
      </trkpt>
      <trkpt lat="45.74348" lon="5.66258">
        <ele>239.02</ele>
        <time>2012-03-28T11:54:22Z</time>
      </trkpt>
      <trkpt lat="45.74289" lon="5.66237">
        <ele>239.99</ele>
        <time>2012-03-28T11:54:37Z</time>
      </trkpt>
      <trkpt lat="45.74271" lon="5.66226">
        <ele>239.02</ele>
        <time>2012-03-28T11:54:41Z</time>
      </trkpt>
      <trkpt lat="45.74248" lon="5.6621">
        <ele>237.58</ele>
        <time>2012-03-28T11:54:46Z</time>
      </trkpt>
      <trkpt lat="45.74199" lon="5.66179">
        <ele>237.58</ele>
        <time>2012-03-28T11:54:57Z</time>
      </trkpt>
      <trkpt lat="45.74156" lon="5.66148">
        <ele>238.06</ele>
        <time>2012-03-28T11:55:08Z</time>
      </trkpt>
      <trkpt lat="45.74131" lon="5.66127">
        <ele>237.58</ele>
        <time>2012-03-28T11:55:14Z</time>
      </trkpt>
      <trkpt lat="45.74103" lon="5.66099">
        <ele>236.62</ele>
        <time>2012-03-28T11:55:21Z</time>
      </trkpt>
      <trkpt lat="45.74048" lon="5.66053">
        <ele>236.14</ele>
        <time>2012-03-28T11:56:47Z</time>
      </trkpt>
      <trkpt lat="45.7404" lon="5.66032">
        <ele>235.66</ele>
        <time>2012-03-28T11:56:52Z</time>
      </trkpt>
      <trkpt lat="45.74037" lon="5.66004">
        <ele>235.18</ele>
        <time>2012-03-28T11:56:56Z</time>
      </trkpt>
      <trkpt lat="45.74041" lon="5.65974">
        <ele>234.7</ele>
        <time>2012-03-28T11:57:00Z</time>
      </trkpt>
      <trkpt lat="45.74053" lon="5.65903">
        <ele>235.18</ele>
        <time>2012-03-28T11:57:13Z</time>
      </trkpt>
      <trkpt lat="45.74064" lon="5.65866">
        <ele>233.74</ele>
        <time>2012-03-28T11:57:19Z</time>
      </trkpt>
      <trkpt lat="45.74075" lon="5.65847">
        <ele>233.74</ele>
        <time>2012-03-28T11:57:22Z</time>
      </trkpt>
      <trkpt lat="45.74084" lon="5.65821">
        <ele>233.74</ele>
        <time>2012-03-28T11:57:26Z</time>
      </trkpt>
      <trkpt lat="45.74098" lon="5.65791">
        <ele>235.18</ele>
        <time>2012-03-28T11:57:32Z</time>
      </trkpt>
      <trkpt lat="45.74143" lon="5.65748">
        <ele>236.14</ele>
        <time>2012-03-28T11:57:44Z</time>
      </trkpt>
      <trkpt lat="45.74179" lon="5.65718">
        <ele>237.1</ele>
        <time>2012-03-28T11:57:53Z</time>
      </trkpt>
      <trkpt lat="45.74225" lon="5.65693">
        <ele>237.58</ele>
        <time>2012-03-28T11:58:05Z</time>
      </trkpt>
      <trkpt lat="45.74232" lon="5.65678">
        <ele>237.58</ele>
        <time>2012-03-28T11:58:08Z</time>
      </trkpt>
      <trkpt lat="45.74236" lon="5.65655">
        <ele>237.58</ele>
        <time>2012-03-28T11:58:12Z</time>
      </trkpt>
      <trkpt lat="45.74242" lon="5.65601">
        <ele>238.06</ele>
        <time>2012-03-28T11:58:21Z</time>
      </trkpt>
      <trkpt lat="45.74263" lon="5.65513">
        <ele>239.02</ele>
        <time>2012-03-28T11:58:37Z</time>
      </trkpt>
      <trkpt lat="45.7426" lon="5.655">
        <ele>239.02</ele>
        <time>2012-03-28T11:58:40Z</time>
      </trkpt>
      <trkpt lat="45.74246" lon="5.65492">
        <ele>239.02</ele>
        <time>2012-03-28T11:58:44Z</time>
      </trkpt>
      <trkpt lat="45.74229" lon="5.65487">
        <ele>239.51</ele>
        <time>2012-03-28T11:58:48Z</time>
      </trkpt>
      <trkpt lat="45.74179" lon="5.65443">
        <ele>239.51</ele>
        <time>2012-03-28T11:59:02Z</time>
      </trkpt>
      <trkpt lat="45.74132" lon="5.65422">
        <ele>240.47</ele>
        <time>2012-03-28T11:59:14Z</time>
      </trkpt>
      <trkpt lat="45.74053" lon="5.65422">
        <ele>239.99</ele>
        <time>2012-03-28T11:59:30Z</time>
      </trkpt>
      <trkpt lat="45.73998" lon="5.65426">
        <ele>239.51</ele>
        <time>2012-03-28T11:59:43Z</time>
      </trkpt>
      <trkpt lat="45.73994" lon="5.65417">
        <ele>240.47</ele>
        <time>2012-03-28T11:59:45Z</time>
      </trkpt>
      <trkpt lat="45.73988" lon="5.65282">
        <ele>239.51</ele>
        <time>2012-03-28T12:00:06Z</time>
      </trkpt>
      <trkpt lat="45.73989" lon="5.65176">
        <ele>239.99</ele>
        <time>2012-03-28T12:00:24Z</time>
      </trkpt>
      <trkpt lat="45.73988" lon="5.65125">
        <ele>241.43</ele>
        <time>2012-03-28T12:00:39Z</time>
      </trkpt>
      <trkpt lat="45.73993" lon="5.65108">
        <ele>242.39</ele>
        <time>2012-03-28T12:00:53Z</time>
      </trkpt>
      <trkpt lat="45.7402" lon="5.65084">
        <ele>246.72</ele>
        <time>2012-03-28T12:02:24Z</time>
      </trkpt>
      <trkpt lat="45.74062" lon="5.65056">
        <ele>251.04</ele>
        <time>2012-03-28T12:02:42Z</time>
      </trkpt>
      <trkpt lat="45.74108" lon="5.65031">
        <ele>255.85</ele>
        <time>2012-03-28T12:03:08Z</time>
      </trkpt>
      <trkpt lat="45.74116" lon="5.65027">
        <ele>256.81</ele>
        <time>2012-03-28T12:03:14Z</time>
      </trkpt>
      <trkpt lat="45.74133" lon="5.65015">
        <ele>257.77</ele>
        <time>2012-03-28T12:03:24Z</time>
      </trkpt>
      <trkpt lat="45.74166" lon="5.65006">
        <ele>259.69</ele>
        <time>2012-03-28T12:03:45Z</time>
      </trkpt>
      <trkpt lat="45.74197" lon="5.64996">
        <ele>262.1</ele>
        <time>2012-03-28T12:04:05Z</time>
      </trkpt>
      <trkpt lat="45.74212" lon="5.64993">
        <ele>262.58</ele>
        <time>2012-03-28T12:04:15Z</time>
      </trkpt>
      <trkpt lat="45.7425" lon="5.64991">
        <ele>266.9</ele>
        <time>2012-03-28T12:04:43Z</time>
      </trkpt>
      <trkpt lat="45.74264" lon="5.64991">
        <ele>267.38</ele>
        <time>2012-03-28T12:04:54Z</time>
      </trkpt>
      <trkpt lat="45.7428" lon="5.64984">
        <ele>267.86</ele>
        <time>2012-03-28T12:05:04Z</time>
      </trkpt>
      <trkpt lat="45.74286" lon="5.64971">
        <ele>268.35</ele>
        <time>2012-03-28T12:05:10Z</time>
      </trkpt>
      <trkpt lat="45.74298" lon="5.64932">
        <ele>268.83</ele>
        <time>2012-03-28T12:06:26Z</time>
      </trkpt>
      <trkpt lat="45.74312" lon="5.64921">
        <ele>268.35</ele>
        <time>2012-03-28T12:06:32Z</time>
      </trkpt>
      <trkpt lat="45.74333" lon="5.64896">
        <ele>269.31</ele>
        <time>2012-03-28T12:06:44Z</time>
      </trkpt>
      <trkpt lat="45.74341" lon="5.64883">
        <ele>270.27</ele>
        <time>2012-03-28T12:06:55Z</time>
      </trkpt>
      <trkpt lat="45.74342" lon="5.64871">
        <ele>271.71</ele>
        <time>2012-03-28T12:07:45Z</time>
      </trkpt>
      <trkpt lat="45.74358" lon="5.64835">
        <ele>275.07</ele>
        <time>2012-03-28T12:07:58Z</time>
      </trkpt>
      <trkpt lat="45.74369" lon="5.64813">
        <ele>278.92</ele>
        <time>2012-03-28T12:08:08Z</time>
      </trkpt>
      <trkpt lat="45.74385" lon="5.64788">
        <ele>279.88</ele>
        <time>2012-03-28T12:08:19Z</time>
      </trkpt>
      <trkpt lat="45.74403" lon="5.64757">
        <ele>280.36</ele>
        <time>2012-03-28T12:08:33Z</time>
      </trkpt>
      <trkpt lat="45.74415" lon="5.64719">
        <ele>280.84</ele>
        <time>2012-03-28T12:08:45Z</time>
      </trkpt>
      <trkpt lat="45.74413" lon="5.64687">
        <ele>282.28</ele>
        <time>2012-03-28T12:08:55Z</time>
      </trkpt>
      <trkpt lat="45.74417" lon="5.64667">
        <ele>283.25</ele>
        <time>2012-03-28T12:09:03Z</time>
      </trkpt>
      <trkpt lat="45.74421" lon="5.64646">
        <ele>284.69</ele>
        <time>2012-03-28T12:09:10Z</time>
      </trkpt>
      <trkpt lat="45.74425" lon="5.6462">
        <ele>287.09</ele>
        <time>2012-03-28T12:09:22Z</time>
      </trkpt>
      <trkpt lat="45.7442" lon="5.64588">
        <ele>286.61</ele>
        <time>2012-03-28T12:09:36Z</time>
      </trkpt>
      <trkpt lat="45.74418" lon="5.64569">
        <ele>287.57</ele>
        <time>2012-03-28T12:09:44Z</time>
      </trkpt>
      <trkpt lat="45.74414" lon="5.6455">
        <ele>288.05</ele>
        <time>2012-03-28T12:09:52Z</time>
      </trkpt>
      <trkpt lat="45.74412" lon="5.64522">
        <ele>288.05</ele>
        <time>2012-03-28T12:10:03Z</time>
      </trkpt>
      <trkpt lat="45.74417" lon="5.64496">
        <ele>288.53</ele>
        <time>2012-03-28T12:10:23Z</time>
      </trkpt>
      <trkpt lat="45.74425" lon="5.64477">
        <ele>289.01</ele>
        <time>2012-03-28T12:10:37Z</time>
      </trkpt>
      <trkpt lat="45.74449" lon="5.64436">
        <ele>289.49</ele>
        <time>2012-03-28T12:10:48Z</time>
      </trkpt>
      <trkpt lat="45.74474" lon="5.64409">
        <ele>291.9</ele>
        <time>2012-03-28T12:11:15Z</time>
      </trkpt>
      <trkpt lat="45.74471" lon="5.64394">
        <ele>294.78</ele>
        <time>2012-03-28T12:11:29Z</time>
      </trkpt>
      <trkpt lat="45.74469" lon="5.64377">
        <ele>296.22</ele>
        <time>2012-03-28T12:11:41Z</time>
      </trkpt>
      <trkpt lat="45.74452" lon="5.64354">
        <ele>302.47</ele>
        <time>2012-03-28T12:13:15Z</time>
      </trkpt>
      <trkpt lat="45.74446" lon="5.64341">
        <ele>304.88</ele>
        <time>2012-03-28T12:13:28Z</time>
      </trkpt>
      <trkpt lat="45.74451" lon="5.64334">
        <ele>305.84</ele>
        <time>2012-03-28T12:13:38Z</time>
      </trkpt>
      <trkpt lat="45.74454" lon="5.64326">
        <ele>305.84</ele>
        <time>2012-03-28T12:13:54Z</time>
      </trkpt>
      <trkpt lat="45.74453" lon="5.64309">
        <ele>307.76</ele>
        <time>2012-03-28T12:14:09Z</time>
      </trkpt>
      <trkpt lat="45.74455" lon="5.64287">
        <ele>310.16</ele>
        <time>2012-03-28T12:14:23Z</time>
      </trkpt>
      <trkpt lat="45.74458" lon="5.64271">
        <ele>311.6</ele>
        <time>2012-03-28T12:14:30Z</time>
      </trkpt>
      <trkpt lat="45.74451" lon="5.64253">
        <ele>312.57</ele>
        <time>2012-03-28T12:14:41Z</time>
      </trkpt>
      <trkpt lat="45.74453" lon="5.6423">
        <ele>312.09</ele>
        <time>2012-03-28T12:14:48Z</time>
      </trkpt>
      <trkpt lat="45.74461" lon="5.64221">
        <ele>312.09</ele>
        <time>2012-03-28T12:14:51Z</time>
      </trkpt>
      <trkpt lat="45.74481" lon="5.64191">
        <ele>312.09</ele>
        <time>2012-03-28T12:15:01Z</time>
      </trkpt>
      <trkpt lat="45.74481" lon="5.6419">
        <ele>312.57</ele>
        <time>2012-03-28T12:15:02Z</time>
      </trkpt>
      <trkpt lat="45.74487" lon="5.64174">
        <ele>312.09</ele>
        <time>2012-03-28T12:15:26Z</time>
      </trkpt>
      <trkpt lat="45.74481" lon="5.64155">
        <ele>314.49</ele>
        <time>2012-03-28T12:17:19Z</time>
      </trkpt>
      <trkpt lat="45.74479" lon="5.64142">
        <ele>314.01</ele>
        <time>2012-03-28T12:17:25Z</time>
      </trkpt>
      <trkpt lat="45.74458" lon="5.64116">
        <ele>314.97</ele>
        <time>2012-03-28T12:17:39Z</time>
      </trkpt>
      <trkpt lat="45.74444" lon="5.641">
        <ele>317.85</ele>
        <time>2012-03-28T12:17:51Z</time>
      </trkpt>
      <trkpt lat="45.74429" lon="5.64095">
        <ele>318.81</ele>
        <time>2012-03-28T12:18:04Z</time>
      </trkpt>
      <trkpt lat="45.74417" lon="5.6409">
        <ele>320.74</ele>
        <time>2012-03-28T12:18:15Z</time>
      </trkpt>
      <trkpt lat="45.74396" lon="5.64087">
        <ele>323.62</ele>
        <time>2012-03-28T12:18:33Z</time>
      </trkpt>
      <trkpt lat="45.74373" lon="5.64082">
        <ele>326.5</ele>
        <time>2012-03-28T12:18:54Z</time>
      </trkpt>
      <trkpt lat="45.74358" lon="5.64082">
        <ele>327.47</ele>
        <time>2012-03-28T12:19:08Z</time>
      </trkpt>
      <trkpt lat="45.7435" lon="5.64076">
        <ele>329.39</ele>
        <time>2012-03-28T12:19:21Z</time>
      </trkpt>
      <trkpt lat="45.74335" lon="5.64076">
        <ele>329.87</ele>
        <time>2012-03-28T12:19:35Z</time>
      </trkpt>
      <trkpt lat="45.74319" lon="5.64079">
        <ele>331.79</ele>
        <time>2012-03-28T12:19:46Z</time>
      </trkpt>
      <trkpt lat="45.74301" lon="5.64073">
        <ele>335.16</ele>
        <time>2012-03-28T12:20:12Z</time>
      </trkpt>
      <trkpt lat="45.74283" lon="5.6407">
        <ele>337.08</ele>
        <time>2012-03-28T12:20:32Z</time>
      </trkpt>
      <trkpt lat="45.7426" lon="5.6408">
        <ele>339</ele>
        <time>2012-03-28T12:20:48Z</time>
      </trkpt>
      <trkpt lat="45.7426" lon="5.6408">
        <ele>338.52</ele>
        <time>2012-03-28T12:20:57Z</time>
      </trkpt>
      <trkpt lat="45.74229" lon="5.64083">
        <ele>339.48</ele>
        <time>2012-03-28T12:21:26Z</time>
      </trkpt>
      <trkpt lat="45.74187" lon="5.64088">
        <ele>340.44</ele>
        <time>2012-03-28T12:21:45Z</time>
      </trkpt>
      <trkpt lat="45.74164" lon="5.64086">
        <ele>341.89</ele>
        <time>2012-03-28T12:21:56Z</time>
      </trkpt>
      <trkpt lat="45.74143" lon="5.64085">
        <ele>342.85</ele>
        <time>2012-03-28T12:22:07Z</time>
      </trkpt>
      <trkpt lat="45.74105" lon="5.64093">
        <ele>342.85</ele>
        <time>2012-03-28T12:22:33Z</time>
      </trkpt>
      <trkpt lat="45.7407" lon="5.64091">
        <ele>345.25</ele>
        <time>2012-03-28T12:22:49Z</time>
      </trkpt>
      <trkpt lat="45.74028" lon="5.64081">
        <ele>346.21</ele>
        <time>2012-03-28T12:23:07Z</time>
      </trkpt>
      <trkpt lat="45.73994" lon="5.64077">
        <ele>345.73</ele>
        <time>2012-03-28T12:23:18Z</time>
      </trkpt>
      <trkpt lat="45.73965" lon="5.64085">
        <ele>346.21</ele>
        <time>2012-03-28T12:23:31Z</time>
      </trkpt>
      <trkpt lat="45.73933" lon="5.64087">
        <ele>347.65</ele>
        <time>2012-03-28T12:23:45Z</time>
      </trkpt>
      <trkpt lat="45.73909" lon="5.64084">
        <ele>348.62</ele>
        <time>2012-03-28T12:23:57Z</time>
      </trkpt>
      <trkpt lat="45.73887" lon="5.64079">
        <ele>350.06</ele>
        <time>2012-03-28T12:24:11Z</time>
      </trkpt>
      <trkpt lat="45.7387" lon="5.64073">
        <ele>351.02</ele>
        <time>2012-03-28T12:24:20Z</time>
      </trkpt>
      <trkpt lat="45.73849" lon="5.64071">
        <ele>352.94</ele>
        <time>2012-03-28T12:24:33Z</time>
      </trkpt>
      <trkpt lat="45.7383" lon="5.64062">
        <ele>353.9</ele>
        <time>2012-03-28T12:24:45Z</time>
      </trkpt>
      <trkpt lat="45.73815" lon="5.64055">
        <ele>354.86</ele>
        <time>2012-03-28T12:24:55Z</time>
      </trkpt>
      <trkpt lat="45.73791" lon="5.64043">
        <ele>356.79</ele>
        <time>2012-03-28T12:25:10Z</time>
      </trkpt>
      <trkpt lat="45.7376" lon="5.64022">
        <ele>359.19</ele>
        <time>2012-03-28T12:25:35Z</time>
      </trkpt>
      <trkpt lat="45.7375" lon="5.64019">
        <ele>359.67</ele>
        <time>2012-03-28T12:25:42Z</time>
      </trkpt>
      <trkpt lat="45.73728" lon="5.64022">
        <ele>361.11</ele>
        <time>2012-03-28T12:25:56Z</time>
      </trkpt>
      <trkpt lat="45.73693" lon="5.64005">
        <ele>362.55</ele>
        <time>2012-03-28T12:26:16Z</time>
      </trkpt>
      <trkpt lat="45.73681" lon="5.63976">
        <ele>364.96</ele>
        <time>2012-03-28T12:26:29Z</time>
      </trkpt>
      <trkpt lat="45.73681" lon="5.63949">
        <ele>366.4</ele>
        <time>2012-03-28T12:26:45Z</time>
      </trkpt>
      <trkpt lat="45.73681" lon="5.6391">
        <ele>368.32</ele>
        <time>2012-03-28T12:27:13Z</time>
      </trkpt>
      <trkpt lat="45.73681" lon="5.6391">
        <ele>368.32</ele>
        <time>2012-03-28T12:27:32Z</time>
      </trkpt>
      <trkpt lat="45.73681" lon="5.6391">
        <ele>368.32</ele>
        <time>2012-03-28T12:27:46Z</time>
      </trkpt>
      <trkpt lat="45.73677" lon="5.63879">
        <ele>368.32</ele>
        <time>2012-03-28T12:27:57Z</time>
      </trkpt>
      <trkpt lat="45.73671" lon="5.63855">
        <ele>369.76</ele>
        <time>2012-03-28T12:28:05Z</time>
      </trkpt>
      <trkpt lat="45.73658" lon="5.63836">
        <ele>370.73</ele>
        <time>2012-03-28T12:28:14Z</time>
      </trkpt>
      <trkpt lat="45.73639" lon="5.63793">
        <ele>373.61</ele>
        <time>2012-03-28T12:28:30Z</time>
      </trkpt>
      <trkpt lat="45.73616" lon="5.63756">
        <ele>374.57</ele>
        <time>2012-03-28T12:28:46Z</time>
      </trkpt>
      <trkpt lat="45.73593" lon="5.6373">
        <ele>376.49</ele>
        <time>2012-03-28T12:29:01Z</time>
      </trkpt>
      <trkpt lat="45.73592" lon="5.63721">
        <ele>376.49</ele>
        <time>2012-03-28T12:29:05Z</time>
      </trkpt>
      <trkpt lat="45.73597" lon="5.63685">
        <ele>379.38</ele>
        <time>2012-03-28T12:29:52Z</time>
      </trkpt>
      <trkpt lat="45.73606" lon="5.63677">
        <ele>381.3</ele>
        <time>2012-03-28T12:30:50Z</time>
      </trkpt>
      <trkpt lat="45.73618" lon="5.63679">
        <ele>381.78</ele>
        <time>2012-03-28T12:31:02Z</time>
      </trkpt>
      <trkpt lat="45.73654" lon="5.63687">
        <ele>384.66</ele>
        <time>2012-03-28T12:31:16Z</time>
      </trkpt>
      <trkpt lat="45.7369" lon="5.63717">
        <ele>386.11</ele>
        <time>2012-03-28T12:31:27Z</time>
      </trkpt>
      <trkpt lat="45.73726" lon="5.63744">
        <ele>386.59</ele>
        <time>2012-03-28T12:31:39Z</time>
      </trkpt>
      <trkpt lat="45.73744" lon="5.63754">
        <ele>385.63</ele>
        <time>2012-03-28T12:31:43Z</time>
      </trkpt>
      <trkpt lat="45.73768" lon="5.63782">
        <ele>386.59</ele>
        <time>2012-03-28T12:31:50Z</time>
      </trkpt>
      <trkpt lat="45.73809" lon="5.63814">
        <ele>383.7</ele>
        <time>2012-03-28T12:31:57Z</time>
      </trkpt>
      <trkpt lat="45.73829" lon="5.63823">
        <ele>384.18</ele>
        <time>2012-03-28T12:32:00Z</time>
      </trkpt>
      <trkpt lat="45.7385" lon="5.63836">
        <ele>382.26</ele>
        <time>2012-03-28T12:32:03Z</time>
      </trkpt>
      <trkpt lat="45.73872" lon="5.63847">
        <ele>380.82</ele>
        <time>2012-03-28T12:32:06Z</time>
      </trkpt>
      <trkpt lat="45.73907" lon="5.63856">
        <ele>379.38</ele>
        <time>2012-03-28T12:32:11Z</time>
      </trkpt>
      <trkpt lat="45.73951" lon="5.63868">
        <ele>378.42</ele>
        <time>2012-03-28T12:32:17Z</time>
      </trkpt>
      <trkpt lat="45.73979" lon="5.63865">
        <ele>380.82</ele>
        <time>2012-03-28T12:32:25Z</time>
      </trkpt>
      <trkpt lat="45.73993" lon="5.63868">
        <ele>381.78</ele>
        <time>2012-03-28T12:32:29Z</time>
      </trkpt>
      <trkpt lat="45.73996" lon="5.63847">
        <ele>384.66</ele>
        <time>2012-03-28T12:32:40Z</time>
      </trkpt>
      <trkpt lat="45.74002" lon="5.6382">
        <ele>382.74</ele>
        <time>2012-03-28T12:32:53Z</time>
      </trkpt>
      <trkpt lat="45.73999" lon="5.63816">
        <ele>380.82</ele>
        <time>2012-03-28T12:33:09Z</time>
      </trkpt>
      <trkpt lat="45.73999" lon="5.63816">
        <ele>381.3</ele>
        <time>2012-03-28T12:33:32Z</time>
      </trkpt>
      <trkpt lat="45.73999" lon="5.63816">
        <ele>381.3</ele>
        <time>2012-03-28T12:34:00Z</time>
      </trkpt>
      <trkpt lat="45.74" lon="5.63816">
        <ele>381.3</ele>
        <time>2012-03-28T12:34:24Z</time>
      </trkpt>
      <trkpt lat="45.74" lon="5.63816">
        <ele>381.3</ele>
        <time>2012-03-28T12:34:46Z</time>
      </trkpt>
      <trkpt lat="45.73999" lon="5.63815">
        <ele>380.82</ele>
        <time>2012-03-28T12:35:08Z</time>
      </trkpt>
      <trkpt lat="45.74007" lon="5.63805">
        <ele>380.82</ele>
        <time>2012-03-28T12:35:28Z</time>
      </trkpt>
      <trkpt lat="45.74007" lon="5.63782">
        <ele>380.82</ele>
        <time>2012-03-28T12:35:37Z</time>
      </trkpt>
      <trkpt lat="45.74005" lon="5.63769">
        <ele>379.86</ele>
        <time>2012-03-28T12:35:41Z</time>
      </trkpt>
      <trkpt lat="45.73996" lon="5.63739">
        <ele>379.38</ele>
        <time>2012-03-28T12:35:48Z</time>
      </trkpt>
      <trkpt lat="45.73985" lon="5.6369">
        <ele>375.05</ele>
        <time>2012-03-28T12:35:58Z</time>
      </trkpt>
      <trkpt lat="45.7402" lon="5.63627">
        <ele>375.05</ele>
        <time>2012-03-28T12:36:12Z</time>
      </trkpt>
      <trkpt lat="45.7403" lon="5.63632">
        <ele>375.53</ele>
        <time>2012-03-28T12:36:53Z</time>
      </trkpt>
      <trkpt lat="45.74039" lon="5.63632">
        <ele>378.42</ele>
        <time>2012-03-28T12:38:02Z</time>
      </trkpt>
      <trkpt lat="45.74058" lon="5.63627">
        <ele>381.3</ele>
        <time>2012-03-28T12:38:14Z</time>
      </trkpt>
      <trkpt lat="45.74071" lon="5.63633">
        <ele>381.3</ele>
        <time>2012-03-28T12:38:21Z</time>
      </trkpt>
      <trkpt lat="45.74101" lon="5.63636">
        <ele>381.3</ele>
        <time>2012-03-28T12:38:33Z</time>
      </trkpt>
      <trkpt lat="45.74154" lon="5.63627">
        <ele>381.3</ele>
        <time>2012-03-28T12:38:46Z</time>
      </trkpt>
      <trkpt lat="45.74181" lon="5.63622">
        <ele>382.26</ele>
        <time>2012-03-28T12:38:52Z</time>
      </trkpt>
      <trkpt lat="45.74217" lon="5.63621">
        <ele>381.3</ele>
        <time>2012-03-28T12:38:59Z</time>
      </trkpt>
      <trkpt lat="45.74257" lon="5.63613">
        <ele>381.3</ele>
        <time>2012-03-28T12:39:06Z</time>
      </trkpt>
      <trkpt lat="45.74288" lon="5.63606">
        <ele>380.34</ele>
        <time>2012-03-28T12:39:12Z</time>
      </trkpt>
      <trkpt lat="45.74361" lon="5.6361">
        <ele>375.53</ele>
        <time>2012-03-28T12:39:23Z</time>
      </trkpt>
      <trkpt lat="45.74381" lon="5.63613">
        <ele>375.53</ele>
        <time>2012-03-28T12:39:26Z</time>
      </trkpt>
      <trkpt lat="45.74393" lon="5.63619">
        <ele>375.05</ele>
        <time>2012-03-28T12:39:28Z</time>
      </trkpt>
      <trkpt lat="45.74401" lon="5.63624">
        <ele>374.57</ele>
        <time>2012-03-28T12:39:30Z</time>
      </trkpt>
      <trkpt lat="45.74412" lon="5.63627">
        <ele>374.09</ele>
        <time>2012-03-28T12:39:34Z</time>
      </trkpt>
      <trkpt lat="45.74436" lon="5.63619">
        <ele>374.57</ele>
        <time>2012-03-28T12:40:52Z</time>
      </trkpt>
      <trkpt lat="45.74451" lon="5.63593">
        <ele>374.09</ele>
        <time>2012-03-28T12:41:18Z</time>
      </trkpt>
      <trkpt lat="45.74464" lon="5.63563">
        <ele>373.61</ele>
        <time>2012-03-28T12:42:54Z</time>
      </trkpt>
      <trkpt lat="45.7446" lon="5.63546">
        <ele>377.45</ele>
        <time>2012-03-28T12:43:01Z</time>
      </trkpt>
      <trkpt lat="45.74461" lon="5.63514">
        <ele>375.53</ele>
        <time>2012-03-28T12:43:11Z</time>
      </trkpt>
      <trkpt lat="45.74457" lon="5.6349">
        <ele>377.45</ele>
        <time>2012-03-28T12:43:21Z</time>
      </trkpt>
      <trkpt lat="45.74473" lon="5.63475">
        <ele>376.97</ele>
        <time>2012-03-28T12:44:43Z</time>
      </trkpt>
      <trkpt lat="45.74481" lon="5.63464">
        <ele>372.17</ele>
        <time>2012-03-28T12:47:58Z</time>
      </trkpt>
      <trkpt lat="45.74481" lon="5.63438">
        <ele>369.28</ele>
        <time>2012-03-28T12:48:06Z</time>
      </trkpt>
      <trkpt lat="45.74478" lon="5.63424">
        <ele>367.84</ele>
        <time>2012-03-28T12:48:10Z</time>
      </trkpt>
      <trkpt lat="45.74478" lon="5.63414">
        <ele>363.52</ele>
        <time>2012-03-28T12:48:20Z</time>
      </trkpt>
      <trkpt lat="45.74477" lon="5.63405">
        <ele>364.48</ele>
        <time>2012-03-28T12:48:29Z</time>
      </trkpt>
      <trkpt lat="45.74464" lon="5.63397">
        <ele>365.44</ele>
        <time>2012-03-28T12:48:40Z</time>
      </trkpt>
      <trkpt lat="45.7446" lon="5.6339">
        <ele>365.44</ele>
        <time>2012-03-28T12:48:53Z</time>
      </trkpt>
      <trkpt lat="45.74448" lon="5.63387">
        <ele>366.88</ele>
        <time>2012-03-28T12:49:24Z</time>
      </trkpt>
      <trkpt lat="45.74445" lon="5.63343">
        <ele>367.84</ele>
        <time>2012-03-28T12:49:48Z</time>
      </trkpt>
      <trkpt lat="45.74433" lon="5.6331">
        <ele>369.28</ele>
        <time>2012-03-28T13:08:07Z</time>
      </trkpt>
      <trkpt lat="45.74405" lon="5.63263">
        <ele>371.21</ele>
        <time>2012-03-28T13:08:20Z</time>
      </trkpt>
      <trkpt lat="45.74393" lon="5.63255">
        <ele>372.17</ele>
        <time>2012-03-28T13:08:25Z</time>
      </trkpt>
      <trkpt lat="45.74354" lon="5.63239">
        <ele>373.61</ele>
        <time>2012-03-28T13:08:38Z</time>
      </trkpt>
      <trkpt lat="45.74328" lon="5.63229">
        <ele>375.05</ele>
        <time>2012-03-28T13:08:49Z</time>
      </trkpt>
      <trkpt lat="45.74298" lon="5.63229">
        <ele>375.05</ele>
        <time>2012-03-28T13:09:11Z</time>
      </trkpt>
      <trkpt lat="45.74288" lon="5.63226">
        <ele>374.57</ele>
        <time>2012-03-28T13:10:26Z</time>
      </trkpt>
      <trkpt lat="45.74279" lon="5.63205">
        <ele>378.9</ele>
        <time>2012-03-28T13:10:37Z</time>
      </trkpt>
      <trkpt lat="45.74274" lon="5.6319">
        <ele>378.42</ele>
        <time>2012-03-28T13:10:45Z</time>
      </trkpt>
      <trkpt lat="45.74268" lon="5.63182">
        <ele>378.9</ele>
        <time>2012-03-28T13:10:53Z</time>
      </trkpt>
      <trkpt lat="45.74258" lon="5.63169">
        <ele>376.97</ele>
        <time>2012-03-28T13:11:01Z</time>
      </trkpt>
      <trkpt lat="45.74253" lon="5.63157">
        <ele>376.01</ele>
        <time>2012-03-28T13:11:38Z</time>
      </trkpt>
      <trkpt lat="45.74261" lon="5.63153">
        <ele>376.97</ele>
        <time>2012-03-28T13:11:49Z</time>
      </trkpt>
      <trkpt lat="45.74249" lon="5.63137">
        <ele>372.65</ele>
        <time>2012-03-28T13:11:58Z</time>
      </trkpt>
      <trkpt lat="45.74232" lon="5.63119">
        <ele>373.61</ele>
        <time>2012-03-28T13:12:07Z</time>
      </trkpt>
      <trkpt lat="45.74223" lon="5.63105">
        <ele>373.13</ele>
        <time>2012-03-28T13:12:15Z</time>
      </trkpt>
      <trkpt lat="45.74212" lon="5.63086">
        <ele>374.09</ele>
        <time>2012-03-28T13:12:20Z</time>
      </trkpt>
      <trkpt lat="45.74205" lon="5.63068">
        <ele>373.13</ele>
        <time>2012-03-28T13:12:25Z</time>
      </trkpt>
      <trkpt lat="45.74202" lon="5.63053">
        <ele>373.13</ele>
        <time>2012-03-28T13:12:42Z</time>
      </trkpt>
      <trkpt lat="45.74198" lon="5.63036">
        <ele>373.61</ele>
        <time>2012-03-28T13:12:52Z</time>
      </trkpt>
      <trkpt lat="45.74198" lon="5.63036">
        <ele>373.13</ele>
        <time>2012-03-28T13:12:54Z</time>
      </trkpt>
      <trkpt lat="45.74209" lon="5.63013">
        <ele>372.17</ele>
        <time>2012-03-28T13:13:16Z</time>
      </trkpt>
      <trkpt lat="45.74216" lon="5.63006">
        <ele>371.69</ele>
        <time>2012-03-28T13:13:28Z</time>
      </trkpt>
      <trkpt lat="45.74233" lon="5.62998">
        <ele>372.17</ele>
        <time>2012-03-28T13:14:34Z</time>
      </trkpt>
      <trkpt lat="45.74247" lon="5.62992">
        <ele>373.13</ele>
        <time>2012-03-28T13:14:41Z</time>
      </trkpt>
      <trkpt lat="45.74272" lon="5.62975">
        <ele>373.13</ele>
        <time>2012-03-28T13:14:52Z</time>
      </trkpt>
      <trkpt lat="45.74283" lon="5.62974">
        <ele>374.09</ele>
        <time>2012-03-28T13:15:18Z</time>
      </trkpt>
      <trkpt lat="45.74287" lon="5.62971">
        <ele>376.01</ele>
        <time>2012-03-28T13:15:22Z</time>
      </trkpt>
      <trkpt lat="45.74297" lon="5.62969">
        <ele>377.94</ele>
        <time>2012-03-28T13:15:29Z</time>
      </trkpt>
      <trkpt lat="45.74311" lon="5.62962">
        <ele>380.34</ele>
        <time>2012-03-28T13:15:49Z</time>
      </trkpt>
      <trkpt lat="45.74325" lon="5.62953">
        <ele>381.78</ele>
        <time>2012-03-28T13:16:07Z</time>
      </trkpt>
      <trkpt lat="45.74331" lon="5.62952">
        <ele>382.74</ele>
        <time>2012-03-28T13:16:21Z</time>
      </trkpt>
      <trkpt lat="45.74331" lon="5.62952">
        <ele>383.22</ele>
        <time>2012-03-28T13:16:52Z</time>
      </trkpt>
      <trkpt lat="45.74343" lon="5.62946">
        <ele>385.15</ele>
        <time>2012-03-28T13:17:03Z</time>
      </trkpt>
      <trkpt lat="45.74367" lon="5.62939">
        <ele>388.51</ele>
        <time>2012-03-28T13:17:17Z</time>
      </trkpt>
      <trkpt lat="45.74373" lon="5.62934">
        <ele>389.95</ele>
        <time>2012-03-28T13:17:31Z</time>
      </trkpt>
      <trkpt lat="45.74392" lon="5.6293">
        <ele>394.28</ele>
        <time>2012-03-28T13:18:03Z</time>
      </trkpt>
      <trkpt lat="45.74392" lon="5.6293">
        <ele>394.28</ele>
        <time>2012-03-28T13:18:23Z</time>
      </trkpt>
      <trkpt lat="45.74392" lon="5.6293">
        <ele>394.28</ele>
        <time>2012-03-28T13:18:42Z</time>
      </trkpt>
      <trkpt lat="45.74407" lon="5.62932">
        <ele>395.72</ele>
        <time>2012-03-28T13:19:08Z</time>
      </trkpt>
      <trkpt lat="45.74417" lon="5.6294">
        <ele>397.64</ele>
        <time>2012-03-28T13:19:21Z</time>
      </trkpt>
      <trkpt lat="45.74436" lon="5.62948">
        <ele>400.05</ele>
        <time>2012-03-28T13:32:10Z</time>
      </trkpt>
      <trkpt lat="45.74464" lon="5.62963">
        <ele>399.08</ele>
        <time>2012-03-28T13:32:24Z</time>
      </trkpt>
      <trkpt lat="45.7451" lon="5.62986">
        <ele>395.72</ele>
        <time>2012-03-28T13:32:38Z</time>
      </trkpt>
      <trkpt lat="45.74533" lon="5.62979">
        <ele>394.28</ele>
        <time>2012-03-28T13:32:43Z</time>
      </trkpt>
      <trkpt lat="45.7455" lon="5.62969">
        <ele>392.84</ele>
        <time>2012-03-28T13:32:47Z</time>
      </trkpt>
      <trkpt lat="45.74558" lon="5.62965">
        <ele>391.87</ele>
        <time>2012-03-28T13:32:49Z</time>
      </trkpt>
      <trkpt lat="45.74568" lon="5.62951">
        <ele>390.91</ele>
        <time>2012-03-28T13:32:53Z</time>
      </trkpt>
      <trkpt lat="45.74595" lon="5.62929">
        <ele>391.39</ele>
        <time>2012-03-28T13:33:04Z</time>
      </trkpt>
      <trkpt lat="45.74606" lon="5.62932">
        <ele>390.91</ele>
        <time>2012-03-28T13:33:09Z</time>
      </trkpt>
      <trkpt lat="45.74618" lon="5.6293">
        <ele>391.87</ele>
        <time>2012-03-28T13:33:13Z</time>
      </trkpt>
      <trkpt lat="45.7464" lon="5.6293">
        <ele>391.87</ele>
        <time>2012-03-28T13:33:22Z</time>
      </trkpt>
      <trkpt lat="45.74659" lon="5.62927">
        <ele>391.39</ele>
        <time>2012-03-28T13:33:29Z</time>
      </trkpt>
      <trkpt lat="45.74668" lon="5.62907">
        <ele>390.43</ele>
        <time>2012-03-28T13:33:35Z</time>
      </trkpt>
      <trkpt lat="45.74689" lon="5.62874">
        <ele>385.63</ele>
        <time>2012-03-28T13:33:43Z</time>
      </trkpt>
      <trkpt lat="45.74677" lon="5.62856">
        <ele>382.74</ele>
        <time>2012-03-28T13:33:48Z</time>
      </trkpt>
      <trkpt lat="45.74662" lon="5.62851">
        <ele>380.34</ele>
        <time>2012-03-28T13:33:55Z</time>
      </trkpt>
      <trkpt lat="45.74661" lon="5.62838">
        <ele>379.38</ele>
        <time>2012-03-28T13:34:06Z</time>
      </trkpt>
      <trkpt lat="45.74669" lon="5.62819">
        <ele>381.3</ele>
        <time>2012-03-28T13:34:47Z</time>
      </trkpt>
      <trkpt lat="45.74684" lon="5.62808">
        <ele>384.66</ele>
        <time>2012-03-28T13:34:57Z</time>
      </trkpt>
      <trkpt lat="45.74696" lon="5.6281">
        <ele>385.15</ele>
        <time>2012-03-28T13:35:06Z</time>
      </trkpt>
      <trkpt lat="45.74715" lon="5.62799">
        <ele>387.55</ele>
        <time>2012-03-28T13:35:20Z</time>
      </trkpt>
      <trkpt lat="45.74715" lon="5.62799">
        <ele>388.03</ele>
        <time>2012-03-28T13:35:52Z</time>
      </trkpt>
      <trkpt lat="45.74716" lon="5.62799">
        <ele>388.03</ele>
        <time>2012-03-28T13:36:08Z</time>
      </trkpt>
      <trkpt lat="45.74729" lon="5.62799">
        <ele>390.43</ele>
        <time>2012-03-28T13:36:53Z</time>
      </trkpt>
      <trkpt lat="45.74738" lon="5.62794">
        <ele>391.87</ele>
        <time>2012-03-28T13:36:59Z</time>
      </trkpt>
      <trkpt lat="45.74763" lon="5.62784">
        <ele>392.84</ele>
        <time>2012-03-28T13:37:09Z</time>
      </trkpt>
      <trkpt lat="45.74787" lon="5.62791">
        <ele>394.28</ele>
        <time>2012-03-28T13:37:21Z</time>
      </trkpt>
      <trkpt lat="45.74792" lon="5.6279">
        <ele>394.76</ele>
        <time>2012-03-28T13:37:24Z</time>
      </trkpt>
      <trkpt lat="45.74803" lon="5.62799">
        <ele>396.68</ele>
        <time>2012-03-28T13:37:33Z</time>
      </trkpt>
      <trkpt lat="45.74848" lon="5.62811">
        <ele>397.64</ele>
        <time>2012-03-28T13:37:57Z</time>
      </trkpt>
      <trkpt lat="45.74873" lon="5.6283">
        <ele>395.24</ele>
        <time>2012-03-28T13:38:07Z</time>
      </trkpt>
      <trkpt lat="45.74884" lon="5.62829">
        <ele>394.28</ele>
        <time>2012-03-28T13:38:15Z</time>
      </trkpt>
      <trkpt lat="45.74914" lon="5.62801">
        <ele>394.76</ele>
        <time>2012-03-28T13:38:30Z</time>
      </trkpt>
      <trkpt lat="45.74918" lon="5.62794">
        <ele>394.76</ele>
        <time>2012-03-28T13:38:32Z</time>
      </trkpt>
      <trkpt lat="45.74926" lon="5.62791">
        <ele>393.32</ele>
        <time>2012-03-28T13:38:37Z</time>
      </trkpt>
      <trkpt lat="45.74945" lon="5.62766">
        <ele>393.8</ele>
        <time>2012-03-28T13:38:46Z</time>
      </trkpt>
      <trkpt lat="45.74985" lon="5.62751">
        <ele>392.36</ele>
        <time>2012-03-28T13:38:56Z</time>
      </trkpt>
      <trkpt lat="45.75016" lon="5.62737">
        <ele>391.39</ele>
        <time>2012-03-28T13:39:17Z</time>
      </trkpt>
      <trkpt lat="45.75032" lon="5.62738">
        <ele>391.87</ele>
        <time>2012-03-28T13:39:28Z</time>
      </trkpt>
      <trkpt lat="45.75063" lon="5.62732">
        <ele>389.95</ele>
        <time>2012-03-28T13:40:16Z</time>
      </trkpt>
      <trkpt lat="45.75078" lon="5.62732">
        <ele>388.51</ele>
        <time>2012-03-28T13:40:19Z</time>
      </trkpt>
      <trkpt lat="45.75113" lon="5.62733">
        <ele>388.03</ele>
        <time>2012-03-28T13:40:25Z</time>
      </trkpt>
      <trkpt lat="45.7515" lon="5.62738">
        <ele>388.03</ele>
        <time>2012-03-28T13:40:37Z</time>
      </trkpt>
      <trkpt lat="45.75193" lon="5.62728">
        <ele>390.43</ele>
        <time>2012-03-28T13:40:50Z</time>
      </trkpt>
      <trkpt lat="45.75227" lon="5.62725">
        <ele>392.84</ele>
        <time>2012-03-28T13:41:01Z</time>
      </trkpt>
      <trkpt lat="45.75249" lon="5.6273">
        <ele>391.39</ele>
        <time>2012-03-28T13:41:12Z</time>
      </trkpt>
      <trkpt lat="45.75272" lon="5.62726">
        <ele>389.47</ele>
        <time>2012-03-28T13:41:16Z</time>
      </trkpt>
      <trkpt lat="45.753" lon="5.6272">
        <ele>388.03</ele>
        <time>2012-03-28T13:41:20Z</time>
      </trkpt>
      <trkpt lat="45.75339" lon="5.6271">
        <ele>384.66</ele>
        <time>2012-03-28T13:41:25Z</time>
      </trkpt>
      <trkpt lat="45.7536" lon="5.62703">
        <ele>382.26</ele>
        <time>2012-03-28T13:41:28Z</time>
      </trkpt>
      <trkpt lat="45.7541" lon="5.62678">
        <ele>381.3</ele>
        <time>2012-03-28T13:41:40Z</time>
      </trkpt>
      <trkpt lat="45.75403" lon="5.62638">
        <ele>381.78</ele>
        <time>2012-03-28T13:42:03Z</time>
      </trkpt>
      <trkpt lat="45.75389" lon="5.62622">
        <ele>382.26</ele>
        <time>2012-03-28T13:42:13Z</time>
      </trkpt>
      <trkpt lat="45.75361" lon="5.62612">
        <ele>382.26</ele>
        <time>2012-03-28T13:42:24Z</time>
      </trkpt>
      <trkpt lat="45.75316" lon="5.62606">
        <ele>382.74</ele>
        <time>2012-03-28T13:42:35Z</time>
      </trkpt>
      <trkpt lat="45.75293" lon="5.62595">
        <ele>384.18</ele>
        <time>2012-03-28T13:42:46Z</time>
      </trkpt>
      <trkpt lat="45.75271" lon="5.62581">
        <ele>387.07</ele>
        <time>2012-03-28T13:42:58Z</time>
      </trkpt>
      <trkpt lat="45.75247" lon="5.62569">
        <ele>387.55</ele>
        <time>2012-03-28T13:43:09Z</time>
      </trkpt>
      <trkpt lat="45.7521" lon="5.62567">
        <ele>387.55</ele>
        <time>2012-03-28T13:43:23Z</time>
      </trkpt>
      <trkpt lat="45.75162" lon="5.62559">
        <ele>386.59</ele>
        <time>2012-03-28T13:43:41Z</time>
      </trkpt>
      <trkpt lat="45.75152" lon="5.62556">
        <ele>388.03</ele>
        <time>2012-03-28T13:43:46Z</time>
      </trkpt>
      <trkpt lat="45.75121" lon="5.62555">
        <ele>388.03</ele>
        <time>2012-03-28T13:43:57Z</time>
      </trkpt>
      <trkpt lat="45.75088" lon="5.6255">
        <ele>387.55</ele>
        <time>2012-03-28T13:44:09Z</time>
      </trkpt>
      <trkpt lat="45.75067" lon="5.62545">
        <ele>387.07</ele>
        <time>2012-03-28T13:44:16Z</time>
      </trkpt>
      <trkpt lat="45.7506" lon="5.62523">
        <ele>388.03</ele>
        <time>2012-03-28T13:44:25Z</time>
      </trkpt>
      <trkpt lat="45.75038" lon="5.62515">
        <ele>389.47</ele>
        <time>2012-03-28T13:44:36Z</time>
      </trkpt>
      <trkpt lat="45.75003" lon="5.62516">
        <ele>389.47</ele>
        <time>2012-03-28T13:44:48Z</time>
      </trkpt>
      <trkpt lat="45.74962" lon="5.62528">
        <ele>388.51</ele>
        <time>2012-03-28T13:44:58Z</time>
      </trkpt>
      <trkpt lat="45.74923" lon="5.62528">
        <ele>388.51</ele>
        <time>2012-03-28T13:45:09Z</time>
      </trkpt>
      <trkpt lat="45.74899" lon="5.6253">
        <ele>386.11</ele>
        <time>2012-03-28T13:45:19Z</time>
      </trkpt>
      <trkpt lat="45.74878" lon="5.62529">
        <ele>384.66</ele>
        <time>2012-03-28T13:47:59Z</time>
      </trkpt>
      <trkpt lat="45.74862" lon="5.62531">
        <ele>385.15</ele>
        <time>2012-03-28T13:48:05Z</time>
      </trkpt>
      <trkpt lat="45.74815" lon="5.62533">
        <ele>384.18</ele>
        <time>2012-03-28T13:48:17Z</time>
      </trkpt>
      <trkpt lat="45.74803" lon="5.62538">
        <ele>383.7</ele>
        <time>2012-03-28T13:48:20Z</time>
      </trkpt>
      <trkpt lat="45.74789" lon="5.62539">
        <ele>384.18</ele>
        <time>2012-03-28T13:48:23Z</time>
      </trkpt>
      <trkpt lat="45.74779" lon="5.62536">
        <ele>382.74</ele>
        <time>2012-03-28T13:48:26Z</time>
      </trkpt>
      <trkpt lat="45.74761" lon="5.62527">
        <ele>384.66</ele>
        <time>2012-03-28T13:49:16Z</time>
      </trkpt>
      <trkpt lat="45.74749" lon="5.62524">
        <ele>384.66</ele>
        <time>2012-03-28T13:49:30Z</time>
      </trkpt>
      <trkpt lat="45.74749" lon="5.62524">
        <ele>384.66</ele>
        <time>2012-03-28T13:49:59Z</time>
      </trkpt>
      <trkpt lat="45.74749" lon="5.62524">
        <ele>384.18</ele>
        <time>2012-03-28T13:50:23Z</time>
      </trkpt>
      <trkpt lat="45.74749" lon="5.62524">
        <ele>384.18</ele>
        <time>2012-03-28T13:50:37Z</time>
      </trkpt>
      <trkpt lat="45.74739" lon="5.62527">
        <ele>384.18</ele>
        <time>2012-03-28T13:50:50Z</time>
      </trkpt>
      <trkpt lat="45.74737" lon="5.62518">
        <ele>387.07</ele>
        <time>2012-03-28T13:51:17Z</time>
      </trkpt>
      <trkpt lat="45.74729" lon="5.62506">
        <ele>390.43</ele>
        <time>2012-03-28T13:51:37Z</time>
      </trkpt>
      <trkpt lat="45.74723" lon="5.62504">
        <ele>391.39</ele>
        <time>2012-03-28T13:51:56Z</time>
      </trkpt>
      <trkpt lat="45.74713" lon="5.62501">
        <ele>393.8</ele>
        <time>2012-03-28T13:52:40Z</time>
      </trkpt>
      <trkpt lat="45.74713" lon="5.62501">
        <ele>392.84</ele>
        <time>2012-03-28T13:52:51Z</time>
      </trkpt>
      <trkpt lat="45.74703" lon="5.62503">
        <ele>393.32</ele>
        <time>2012-03-28T13:53:12Z</time>
      </trkpt>
      <trkpt lat="45.74696" lon="5.625">
        <ele>393.8</ele>
        <time>2012-03-28T13:53:15Z</time>
      </trkpt>
      <trkpt lat="45.74695" lon="5.6249">
        <ele>396.68</ele>
        <time>2012-03-28T13:53:20Z</time>
      </trkpt>
      <trkpt lat="45.74688" lon="5.62483">
        <ele>397.16</ele>
        <time>2012-03-28T13:53:35Z</time>
      </trkpt>
      <trkpt lat="45.74679" lon="5.62488">
        <ele>396.68</ele>
        <time>2012-03-28T13:53:41Z</time>
      </trkpt>
      <trkpt lat="45.74675" lon="5.62499">
        <ele>394.76</ele>
        <time>2012-03-28T13:53:49Z</time>
      </trkpt>
      <trkpt lat="45.74656" lon="5.625">
        <ele>398.6</ele>
        <time>2012-03-28T13:54:11Z</time>
      </trkpt>
      <trkpt lat="45.74646" lon="5.62503">
        <ele>398.6</ele>
        <time>2012-03-28T13:54:18Z</time>
      </trkpt>
      <trkpt lat="45.74638" lon="5.62503">
        <ele>398.6</ele>
        <time>2012-03-28T13:54:22Z</time>
      </trkpt>
      <trkpt lat="45.74635" lon="5.6249">
        <ele>399.57</ele>
        <time>2012-03-28T13:54:29Z</time>
      </trkpt>
      <trkpt lat="45.74618" lon="5.62491">
        <ele>400.05</ele>
        <time>2012-03-28T13:54:38Z</time>
      </trkpt>
      <trkpt lat="45.74603" lon="5.62492">
        <ele>400.53</ele>
        <time>2012-03-28T13:54:47Z</time>
      </trkpt>
      <trkpt lat="45.74595" lon="5.62491">
        <ele>401.01</ele>
        <time>2012-03-28T13:54:51Z</time>
      </trkpt>
      <trkpt lat="45.74589" lon="5.62502">
        <ele>401.01</ele>
        <time>2012-03-28T13:54:59Z</time>
      </trkpt>
      <trkpt lat="45.74564" lon="5.62508">
        <ele>402.45</ele>
        <time>2012-03-28T13:55:09Z</time>
      </trkpt>
      <trkpt lat="45.74552" lon="5.62506">
        <ele>401.97</ele>
        <time>2012-03-28T13:55:16Z</time>
      </trkpt>
      <trkpt lat="45.74549" lon="5.62499">
        <ele>401.49</ele>
        <time>2012-03-28T13:55:20Z</time>
      </trkpt>
      <trkpt lat="45.74518" lon="5.62501">
        <ele>401.49</ele>
        <time>2012-03-28T13:55:34Z</time>
      </trkpt>
      <trkpt lat="45.74507" lon="5.62508">
        <ele>402.93</ele>
        <time>2012-03-28T13:55:45Z</time>
      </trkpt>
      <trkpt lat="45.74493" lon="5.62512">
        <ele>404.37</ele>
        <time>2012-03-28T13:55:53Z</time>
      </trkpt>
      <trkpt lat="45.74486" lon="5.62509">
        <ele>404.37</ele>
        <time>2012-03-28T13:55:57Z</time>
      </trkpt>
      <trkpt lat="45.74469" lon="5.62513">
        <ele>404.85</ele>
        <time>2012-03-28T13:56:04Z</time>
      </trkpt>
      <trkpt lat="45.74427" lon="5.62522">
        <ele>404.37</ele>
        <time>2012-03-28T13:56:16Z</time>
      </trkpt>
      <trkpt lat="45.74403" lon="5.62529">
        <ele>403.41</ele>
        <time>2012-03-28T13:56:27Z</time>
      </trkpt>
      <trkpt lat="45.74388" lon="5.62526">
        <ele>403.89</ele>
        <time>2012-03-28T13:56:36Z</time>
      </trkpt>
      <trkpt lat="45.74382" lon="5.62533">
        <ele>402.93</ele>
        <time>2012-03-28T13:56:41Z</time>
      </trkpt>
      <trkpt lat="45.7437" lon="5.62537">
        <ele>402.45</ele>
        <time>2012-03-28T13:56:47Z</time>
      </trkpt>
      <trkpt lat="45.74346" lon="5.6254">
        <ele>401.49</ele>
        <time>2012-03-28T13:56:58Z</time>
      </trkpt>
      <trkpt lat="45.74336" lon="5.62531">
        <ele>398.6</ele>
        <time>2012-03-28T13:57:05Z</time>
      </trkpt>
      <trkpt lat="45.74326" lon="5.62531">
        <ele>398.6</ele>
        <time>2012-03-28T13:57:09Z</time>
      </trkpt>
      <trkpt lat="45.74311" lon="5.62534">
        <ele>398.6</ele>
        <time>2012-03-28T13:57:14Z</time>
      </trkpt>
      <trkpt lat="45.74304" lon="5.62538">
        <ele>398.12</ele>
        <time>2012-03-28T13:57:17Z</time>
      </trkpt>
      <trkpt lat="45.74289" lon="5.62541">
        <ele>398.6</ele>
        <time>2012-03-28T13:57:24Z</time>
      </trkpt>
      <trkpt lat="45.74277" lon="5.62557">
        <ele>401.97</ele>
        <time>2012-03-28T13:57:36Z</time>
      </trkpt>
      <trkpt lat="45.74266" lon="5.62582">
        <ele>404.37</ele>
        <time>2012-03-28T13:57:57Z</time>
      </trkpt>
      <trkpt lat="45.74256" lon="5.62593">
        <ele>406.29</ele>
        <time>2012-03-28T13:58:09Z</time>
      </trkpt>
      <trkpt lat="45.74239" lon="5.62601">
        <ele>407.74</ele>
        <time>2012-03-28T13:58:14Z</time>
      </trkpt>
      <trkpt lat="45.74215" lon="5.626">
        <ele>411.58</ele>
        <time>2012-03-28T13:58:35Z</time>
      </trkpt>
      <trkpt lat="45.74203" lon="5.62596">
        <ele>413.5</ele>
        <time>2012-03-28T14:00:44Z</time>
      </trkpt>
      <trkpt lat="45.74181" lon="5.62597">
        <ele>415.91</ele>
        <time>2012-03-28T14:01:00Z</time>
      </trkpt>
      <trkpt lat="45.7415" lon="5.62588">
        <ele>416.87</ele>
        <time>2012-03-28T14:01:13Z</time>
      </trkpt>
      <trkpt lat="45.74129" lon="5.62595">
        <ele>414.95</ele>
        <time>2012-03-28T14:01:18Z</time>
      </trkpt>
      <trkpt lat="45.74099" lon="5.62604">
        <ele>414.47</ele>
        <time>2012-03-28T14:01:26Z</time>
      </trkpt>
      <trkpt lat="45.74096" lon="5.62613">
        <ele>414.95</ele>
        <time>2012-03-28T14:01:28Z</time>
      </trkpt>
      <trkpt lat="45.74094" lon="5.62628">
        <ele>413.98</ele>
        <time>2012-03-28T14:01:31Z</time>
      </trkpt>
      <trkpt lat="45.74091" lon="5.6265">
        <ele>412.54</ele>
        <time>2012-03-28T14:01:34Z</time>
      </trkpt>
      <trkpt lat="45.74084" lon="5.62662">
        <ele>412.54</ele>
        <time>2012-03-28T14:01:36Z</time>
      </trkpt>
      <trkpt lat="45.74073" lon="5.62668">
        <ele>412.06</ele>
        <time>2012-03-28T14:01:38Z</time>
      </trkpt>
      <trkpt lat="45.74059" lon="5.62676">
        <ele>410.14</ele>
        <time>2012-03-28T14:01:40Z</time>
      </trkpt>
      <trkpt lat="45.74042" lon="5.62685">
        <ele>408.7</ele>
        <time>2012-03-28T14:01:42Z</time>
      </trkpt>
      <trkpt lat="45.74024" lon="5.62691">
        <ele>406.77</ele>
        <time>2012-03-28T14:01:44Z</time>
      </trkpt>
      <trkpt lat="45.73965" lon="5.62701">
        <ele>403.89</ele>
        <time>2012-03-28T14:01:50Z</time>
      </trkpt>
      <trkpt lat="45.73936" lon="5.62705">
        <ele>400.53</ele>
        <time>2012-03-28T14:01:54Z</time>
      </trkpt>
      <trkpt lat="45.73903" lon="5.62709">
        <ele>397.16</ele>
        <time>2012-03-28T14:02:00Z</time>
      </trkpt>
      <trkpt lat="45.73889" lon="5.62703">
        <ele>395.72</ele>
        <time>2012-03-28T14:02:03Z</time>
      </trkpt>
      <trkpt lat="45.73876" lon="5.62685">
        <ele>393.8</ele>
        <time>2012-03-28T14:02:07Z</time>
      </trkpt>
      <trkpt lat="45.73862" lon="5.62677">
        <ele>391.39</ele>
        <time>2012-03-28T14:02:11Z</time>
      </trkpt>
      <trkpt lat="45.73821" lon="5.62691">
        <ele>387.07</ele>
        <time>2012-03-28T14:02:19Z</time>
      </trkpt>
      <trkpt lat="45.73796" lon="5.62696">
        <ele>385.15</ele>
        <time>2012-03-28T14:02:23Z</time>
      </trkpt>
      <trkpt lat="45.73779" lon="5.62702">
        <ele>383.7</ele>
        <time>2012-03-28T14:02:26Z</time>
      </trkpt>
      <trkpt lat="45.73751" lon="5.62713">
        <ele>382.74</ele>
        <time>2012-03-28T14:02:31Z</time>
      </trkpt>
      <trkpt lat="45.73703" lon="5.62735">
        <ele>378.9</ele>
        <time>2012-03-28T14:02:39Z</time>
      </trkpt>
      <trkpt lat="45.73685" lon="5.62744">
        <ele>376.97</ele>
        <time>2012-03-28T14:02:42Z</time>
      </trkpt>
      <trkpt lat="45.73676" lon="5.62752">
        <ele>375.05</ele>
        <time>2012-03-28T14:02:44Z</time>
      </trkpt>
      <trkpt lat="45.73668" lon="5.62767">
        <ele>374.57</ele>
        <time>2012-03-28T14:02:46Z</time>
      </trkpt>
      <trkpt lat="45.73661" lon="5.62783">
        <ele>373.13</ele>
        <time>2012-03-28T14:02:48Z</time>
      </trkpt>
      <trkpt lat="45.73651" lon="5.62798">
        <ele>372.17</ele>
        <time>2012-03-28T14:02:51Z</time>
      </trkpt>
      <trkpt lat="45.7364" lon="5.628">
        <ele>372.17</ele>
        <time>2012-03-28T14:02:54Z</time>
      </trkpt>
      <trkpt lat="45.73628" lon="5.6279">
        <ele>370.73</ele>
        <time>2012-03-28T14:02:57Z</time>
      </trkpt>
      <trkpt lat="45.73613" lon="5.62776">
        <ele>369.76</ele>
        <time>2012-03-28T14:03:00Z</time>
      </trkpt>
      <trkpt lat="45.73583" lon="5.62749">
        <ele>366.4</ele>
        <time>2012-03-28T14:03:05Z</time>
      </trkpt>
      <trkpt lat="45.7357" lon="5.62743">
        <ele>364.96</ele>
        <time>2012-03-28T14:03:07Z</time>
      </trkpt>
      <trkpt lat="45.73554" lon="5.62742">
        <ele>364</ele>
        <time>2012-03-28T14:03:09Z</time>
      </trkpt>
      <trkpt lat="45.7354" lon="5.62738">
        <ele>362.07</ele>
        <time>2012-03-28T14:03:11Z</time>
      </trkpt>
      <trkpt lat="45.73531" lon="5.62728">
        <ele>361.59</ele>
        <time>2012-03-28T14:03:13Z</time>
      </trkpt>
      <trkpt lat="45.73528" lon="5.62712">
        <ele>360.63</ele>
        <time>2012-03-28T14:03:15Z</time>
      </trkpt>
      <trkpt lat="45.73529" lon="5.62693">
        <ele>359.67</ele>
        <time>2012-03-28T14:03:17Z</time>
      </trkpt>
      <trkpt lat="45.73529" lon="5.62647">
        <ele>355.34</ele>
        <time>2012-03-28T14:03:21Z</time>
      </trkpt>
      <trkpt lat="45.73522" lon="5.62609">
        <ele>353.42</ele>
        <time>2012-03-28T14:03:24Z</time>
      </trkpt>
      <trkpt lat="45.73514" lon="5.62588">
        <ele>351.5</ele>
        <time>2012-03-28T14:03:26Z</time>
      </trkpt>
      <trkpt lat="45.73504" lon="5.62568">
        <ele>351.02</ele>
        <time>2012-03-28T14:03:28Z</time>
      </trkpt>
      <trkpt lat="45.73485" lon="5.62549">
        <ele>348.62</ele>
        <time>2012-03-28T14:03:31Z</time>
      </trkpt>
      <trkpt lat="45.7347" lon="5.62542">
        <ele>347.65</ele>
        <time>2012-03-28T14:03:33Z</time>
      </trkpt>
      <trkpt lat="45.73406" lon="5.62545">
        <ele>344.29</ele>
        <time>2012-03-28T14:03:39Z</time>
      </trkpt>
      <trkpt lat="45.73362" lon="5.62546">
        <ele>341.41</ele>
        <time>2012-03-28T14:03:44Z</time>
      </trkpt>
      <trkpt lat="45.7335" lon="5.62541">
        <ele>340.92</ele>
        <time>2012-03-28T14:03:46Z</time>
      </trkpt>
      <trkpt lat="45.73344" lon="5.62528">
        <ele>340.92</ele>
        <time>2012-03-28T14:03:48Z</time>
      </trkpt>
      <trkpt lat="45.73341" lon="5.62513">
        <ele>339.96</ele>
        <time>2012-03-28T14:03:50Z</time>
      </trkpt>
      <trkpt lat="45.73324" lon="5.62372">
        <ele>339</ele>
        <time>2012-03-28T14:04:07Z</time>
      </trkpt>
      <trkpt lat="45.73315" lon="5.623">
        <ele>338.04</ele>
        <time>2012-03-28T14:04:16Z</time>
      </trkpt>
      <trkpt lat="45.73311" lon="5.62223">
        <ele>339</ele>
        <time>2012-03-28T14:04:28Z</time>
      </trkpt>
      <trkpt lat="45.73287" lon="5.62143">
        <ele>339.96</ele>
        <time>2012-03-28T14:07:53Z</time>
      </trkpt>
      <trkpt lat="45.73285" lon="5.62121">
        <ele>341.89</ele>
        <time>2012-03-28T14:12:44Z</time>
      </trkpt>
      <trkpt lat="45.73291" lon="5.62147">
        <ele>341.89</ele>
        <time>2012-03-28T14:13:33Z</time>
      </trkpt>
      <trkpt lat="45.73309" lon="5.62198">
        <ele>340.92</ele>
        <time>2012-03-28T14:13:45Z</time>
      </trkpt>
      <trkpt lat="45.73318" lon="5.62282">
        <ele>339.96</ele>
        <time>2012-03-28T14:13:59Z</time>
      </trkpt>
      <trkpt lat="45.73322" lon="5.62342">
        <ele>339.96</ele>
        <time>2012-03-28T14:14:10Z</time>
      </trkpt>
      <trkpt lat="45.73327" lon="5.62427">
        <ele>340.92</ele>
        <time>2012-03-28T14:14:25Z</time>
      </trkpt>
      <trkpt lat="45.73337" lon="5.62517">
        <ele>341.89</ele>
        <time>2012-03-28T14:14:41Z</time>
      </trkpt>
      <trkpt lat="45.73316" lon="5.62563">
        <ele>343.33</ele>
        <time>2012-03-28T14:14:52Z</time>
      </trkpt>
      <trkpt lat="45.73255" lon="5.62606">
        <ele>344.29</ele>
        <time>2012-03-28T14:15:09Z</time>
      </trkpt>
      <trkpt lat="45.732" lon="5.62677">
        <ele>344.77</ele>
        <time>2012-03-28T14:15:27Z</time>
      </trkpt>
      <trkpt lat="45.73149" lon="5.62782">
        <ele>343.81</ele>
        <time>2012-03-28T14:15:46Z</time>
      </trkpt>
      <trkpt lat="45.73084" lon="5.62883">
        <ele>343.33</ele>
        <time>2012-03-28T14:16:04Z</time>
      </trkpt>
      <trkpt lat="45.73058" lon="5.62938">
        <ele>342.85</ele>
        <time>2012-03-28T14:16:13Z</time>
      </trkpt>
      <trkpt lat="45.73053" lon="5.62966">
        <ele>342.37</ele>
        <time>2012-03-28T14:16:17Z</time>
      </trkpt>
      <trkpt lat="45.73054" lon="5.63064">
        <ele>343.81</ele>
        <time>2012-03-28T14:16:32Z</time>
      </trkpt>
      <trkpt lat="45.73046" lon="5.63122">
        <ele>346.21</ele>
        <time>2012-03-28T14:16:47Z</time>
      </trkpt>
      <trkpt lat="45.73027" lon="5.63156">
        <ele>347.65</ele>
        <time>2012-03-28T14:17:01Z</time>
      </trkpt>
      <trkpt lat="45.72998" lon="5.63195">
        <ele>348.62</ele>
        <time>2012-03-28T14:17:17Z</time>
      </trkpt>
      <trkpt lat="45.72975" lon="5.63222">
        <ele>349.1</ele>
        <time>2012-03-28T14:17:29Z</time>
      </trkpt>
      <trkpt lat="45.72942" lon="5.6326">
        <ele>350.54</ele>
        <time>2012-03-28T14:17:47Z</time>
      </trkpt>
      <trkpt lat="45.72914" lon="5.63286">
        <ele>351.5</ele>
        <time>2012-03-28T14:18:01Z</time>
      </trkpt>
      <trkpt lat="45.72887" lon="5.63311">
        <ele>352.94</ele>
        <time>2012-03-28T14:18:17Z</time>
      </trkpt>
      <trkpt lat="45.72866" lon="5.63335">
        <ele>354.38</ele>
        <time>2012-03-28T14:18:31Z</time>
      </trkpt>
      <trkpt lat="45.72838" lon="5.63365">
        <ele>356.31</ele>
        <time>2012-03-28T14:18:48Z</time>
      </trkpt>
      <trkpt lat="45.72809" lon="5.63395">
        <ele>358.23</ele>
        <time>2012-03-28T14:19:10Z</time>
      </trkpt>
      <trkpt lat="45.72807" lon="5.63396">
        <ele>358.23</ele>
        <time>2012-03-28T14:19:11Z</time>
      </trkpt>
      <trkpt lat="45.72783" lon="5.63417">
        <ele>359.67</ele>
        <time>2012-03-28T14:19:27Z</time>
      </trkpt>
      <trkpt lat="45.72759" lon="5.63437">
        <ele>361.59</ele>
        <time>2012-03-28T14:19:42Z</time>
      </trkpt>
      <trkpt lat="45.72734" lon="5.63459">
        <ele>363.04</ele>
        <time>2012-03-28T14:19:59Z</time>
      </trkpt>
      <trkpt lat="45.7271" lon="5.63466">
        <ele>364.96</ele>
        <time>2012-03-28T14:20:13Z</time>
      </trkpt>
      <trkpt lat="45.72681" lon="5.63471">
        <ele>365.92</ele>
        <time>2012-03-28T14:20:29Z</time>
      </trkpt>
      <trkpt lat="45.7266" lon="5.63494">
        <ele>368.8</ele>
        <time>2012-03-28T14:20:42Z</time>
      </trkpt>
      <trkpt lat="45.72674" lon="5.63511">
        <ele>369.76</ele>
        <time>2012-03-28T14:20:53Z</time>
      </trkpt>
      <trkpt lat="45.72698" lon="5.63511">
        <ele>370.73</ele>
        <time>2012-03-28T14:21:07Z</time>
      </trkpt>
      <trkpt lat="45.72719" lon="5.63507">
        <ele>372.17</ele>
        <time>2012-03-28T14:21:20Z</time>
      </trkpt>
      <trkpt lat="45.72744" lon="5.63504">
        <ele>374.09</ele>
        <time>2012-03-28T14:21:37Z</time>
      </trkpt>
      <trkpt lat="45.72768" lon="5.63505">
        <ele>375.53</ele>
        <time>2012-03-28T14:21:51Z</time>
      </trkpt>
      <trkpt lat="45.728" lon="5.63525">
        <ele>376.97</ele>
        <time>2012-03-28T14:22:06Z</time>
      </trkpt>
      <trkpt lat="45.72826" lon="5.63568">
        <ele>376.49</ele>
        <time>2012-03-28T14:22:17Z</time>
      </trkpt>
      <trkpt lat="45.72845" lon="5.63595">
        <ele>375.05</ele>
        <time>2012-03-28T14:22:22Z</time>
      </trkpt>
      <trkpt lat="45.72858" lon="5.63605">
        <ele>373.61</ele>
        <time>2012-03-28T14:22:30Z</time>
      </trkpt>
      <trkpt lat="45.72873" lon="5.63606">
        <ele>373.13</ele>
        <time>2012-03-28T14:23:11Z</time>
      </trkpt>
      <trkpt lat="45.72884" lon="5.6361">
        <ele>373.13</ele>
        <time>2012-03-28T14:23:15Z</time>
      </trkpt>
      <trkpt lat="45.72897" lon="5.63629">
        <ele>374.09</ele>
        <time>2012-03-28T14:23:20Z</time>
      </trkpt>
      <trkpt lat="45.72929" lon="5.63618">
        <ele>376.49</ele>
        <time>2012-03-28T14:23:40Z</time>
      </trkpt>
      <trkpt lat="45.72938" lon="5.6362">
        <ele>377.45</ele>
        <time>2012-03-28T14:23:45Z</time>
      </trkpt>
      <trkpt lat="45.72971" lon="5.63615">
        <ele>377.94</ele>
        <time>2012-03-28T14:23:57Z</time>
      </trkpt>
      <trkpt lat="45.7299" lon="5.63611">
        <ele>377.45</ele>
        <time>2012-03-28T14:24:06Z</time>
      </trkpt>
      <trkpt lat="45.7303" lon="5.636">
        <ele>378.42</ele>
        <time>2012-03-28T14:24:17Z</time>
      </trkpt>
      <trkpt lat="45.73052" lon="5.63594">
        <ele>378.9</ele>
        <time>2012-03-28T14:24:25Z</time>
      </trkpt>
      <trkpt lat="45.73072" lon="5.63586">
        <ele>380.34</ele>
        <time>2012-03-28T14:24:36Z</time>
      </trkpt>
      <trkpt lat="45.73089" lon="5.63577">
        <ele>381.78</ele>
        <time>2012-03-28T14:24:47Z</time>
      </trkpt>
      <trkpt lat="45.73108" lon="5.63568">
        <ele>383.22</ele>
        <time>2012-03-28T14:25:00Z</time>
      </trkpt>
      <trkpt lat="45.73124" lon="5.63566">
        <ele>383.7</ele>
        <time>2012-03-28T14:25:06Z</time>
      </trkpt>
      <trkpt lat="45.73145" lon="5.63567">
        <ele>383.7</ele>
        <time>2012-03-28T14:25:15Z</time>
      </trkpt>
      <trkpt lat="45.73164" lon="5.63565">
        <ele>384.18</ele>
        <time>2012-03-28T14:25:23Z</time>
      </trkpt>
      <trkpt lat="45.73202" lon="5.63553">
        <ele>384.18</ele>
        <time>2012-03-28T14:25:38Z</time>
      </trkpt>
      <trkpt lat="45.73208" lon="5.63549">
        <ele>384.66</ele>
        <time>2012-03-28T14:25:42Z</time>
      </trkpt>
      <trkpt lat="45.73233" lon="5.63546">
        <ele>386.11</ele>
        <time>2012-03-28T14:25:55Z</time>
      </trkpt>
      <trkpt lat="45.7325" lon="5.63541">
        <ele>388.03</ele>
        <time>2012-03-28T14:26:36Z</time>
      </trkpt>
      <trkpt lat="45.73269" lon="5.63531">
        <ele>390.91</ele>
        <time>2012-03-28T14:26:49Z</time>
      </trkpt>
      <trkpt lat="45.73282" lon="5.63519">
        <ele>392.84</ele>
        <time>2012-03-28T14:27:01Z</time>
      </trkpt>
      <trkpt lat="45.73292" lon="5.63505">
        <ele>394.28</ele>
        <time>2012-03-28T14:27:12Z</time>
      </trkpt>
      <trkpt lat="45.73311" lon="5.63485">
        <ele>394.76</ele>
        <time>2012-03-28T14:27:26Z</time>
      </trkpt>
      <trkpt lat="45.73324" lon="5.63485">
        <ele>394.28</ele>
        <time>2012-03-28T14:27:39Z</time>
      </trkpt>
      <trkpt lat="45.73324" lon="5.63485">
        <ele>394.28</ele>
        <time>2012-03-28T14:28:03Z</time>
      </trkpt>
      <trkpt lat="45.73324" lon="5.63485">
        <ele>394.76</ele>
        <time>2012-03-28T14:28:21Z</time>
      </trkpt>
      <trkpt lat="45.73338" lon="5.6348">
        <ele>396.2</ele>
        <time>2012-03-28T14:28:50Z</time>
      </trkpt>
      <trkpt lat="45.73346" lon="5.63465">
        <ele>395.72</ele>
        <time>2012-03-28T14:28:58Z</time>
      </trkpt>
      <trkpt lat="45.73357" lon="5.6344">
        <ele>395.24</ele>
        <time>2012-03-28T14:29:04Z</time>
      </trkpt>
      <trkpt lat="45.73364" lon="5.6343">
        <ele>395.24</ele>
        <time>2012-03-28T14:29:06Z</time>
      </trkpt>
      <trkpt lat="45.73392" lon="5.63421">
        <ele>394.28</ele>
        <time>2012-03-28T14:29:12Z</time>
      </trkpt>
      <trkpt lat="45.73456" lon="5.63391">
        <ele>393.32</ele>
        <time>2012-03-28T14:29:25Z</time>
      </trkpt>
      <trkpt lat="45.73477" lon="5.63371">
        <ele>392.84</ele>
        <time>2012-03-28T14:29:30Z</time>
      </trkpt>
      <trkpt lat="45.73489" lon="5.63366">
        <ele>392.84</ele>
        <time>2012-03-28T14:29:32Z</time>
      </trkpt>
      <trkpt lat="45.73507" lon="5.63371">
        <ele>392.84</ele>
        <time>2012-03-28T14:29:35Z</time>
      </trkpt>
      <trkpt lat="45.73548" lon="5.63384">
        <ele>389.95</ele>
        <time>2012-03-28T14:29:42Z</time>
      </trkpt>
      <trkpt lat="45.73588" lon="5.63384">
        <ele>388.99</ele>
        <time>2012-03-28T14:29:49Z</time>
      </trkpt>
      <trkpt lat="45.73608" lon="5.63384">
        <ele>388.51</ele>
        <time>2012-03-28T14:29:52Z</time>
      </trkpt>
      <trkpt lat="45.73645" lon="5.63388">
        <ele>385.15</ele>
        <time>2012-03-28T14:29:59Z</time>
      </trkpt>
      <trkpt lat="45.73657" lon="5.63392">
        <ele>383.22</ele>
        <time>2012-03-28T14:30:52Z</time>
      </trkpt>
      <trkpt lat="45.73667" lon="5.63414">
        <ele>384.18</ele>
        <time>2012-03-28T14:31:00Z</time>
      </trkpt>
      <trkpt lat="45.73668" lon="5.63428">
        <ele>385.15</ele>
        <time>2012-03-28T14:31:52Z</time>
      </trkpt>
      <trkpt lat="45.73678" lon="5.63479">
        <ele>387.07</ele>
        <time>2012-03-28T14:32:04Z</time>
      </trkpt>
      <trkpt lat="45.73685" lon="5.63494">
        <ele>388.03</ele>
        <time>2012-03-28T14:32:07Z</time>
      </trkpt>
      <trkpt lat="45.73688" lon="5.63508">
        <ele>388.03</ele>
        <time>2012-03-28T14:32:09Z</time>
      </trkpt>
      <trkpt lat="45.73692" lon="5.63525">
        <ele>387.55</ele>
        <time>2012-03-28T14:32:11Z</time>
      </trkpt>
      <trkpt lat="45.73695" lon="5.63542">
        <ele>387.07</ele>
        <time>2012-03-28T14:32:13Z</time>
      </trkpt>
      <trkpt lat="45.73692" lon="5.63557">
        <ele>387.07</ele>
        <time>2012-03-28T14:32:15Z</time>
      </trkpt>
      <trkpt lat="45.73683" lon="5.6357">
        <ele>387.07</ele>
        <time>2012-03-28T14:32:18Z</time>
      </trkpt>
      <trkpt lat="45.7367" lon="5.63577">
        <ele>387.07</ele>
        <time>2012-03-28T14:32:21Z</time>
      </trkpt>
      <trkpt lat="45.73661" lon="5.63579">
        <ele>387.55</ele>
        <time>2012-03-28T14:32:23Z</time>
      </trkpt>
      <trkpt lat="45.73629" lon="5.63601">
        <ele>389.47</ele>
        <time>2012-03-28T14:32:32Z</time>
      </trkpt>
      <trkpt lat="45.73606" lon="5.63643">
        <ele>388.99</ele>
        <time>2012-03-28T14:32:45Z</time>
      </trkpt>
      <trkpt lat="45.73604" lon="5.63681">
        <ele>387.55</ele>
        <time>2012-03-28T14:32:52Z</time>
      </trkpt>
      <trkpt lat="45.73601" lon="5.63696">
        <ele>386.59</ele>
        <time>2012-03-28T14:32:54Z</time>
      </trkpt>
      <trkpt lat="45.73597" lon="5.63713">
        <ele>384.66</ele>
        <time>2012-03-28T14:32:57Z</time>
      </trkpt>
      <trkpt lat="45.736" lon="5.63723">
        <ele>383.7</ele>
        <time>2012-03-28T14:32:59Z</time>
      </trkpt>
      <trkpt lat="45.73618" lon="5.63748">
        <ele>382.74</ele>
        <time>2012-03-28T14:33:04Z</time>
      </trkpt>
      <trkpt lat="45.7363" lon="5.63767">
        <ele>381.78</ele>
        <time>2012-03-28T14:33:07Z</time>
      </trkpt>
      <trkpt lat="45.73639" lon="5.6379">
        <ele>381.3</ele>
        <time>2012-03-28T14:33:10Z</time>
      </trkpt>
      <trkpt lat="45.73643" lon="5.63804">
        <ele>381.3</ele>
        <time>2012-03-28T14:33:12Z</time>
      </trkpt>
      <trkpt lat="45.73649" lon="5.63817">
        <ele>380.82</ele>
        <time>2012-03-28T14:33:14Z</time>
      </trkpt>
      <trkpt lat="45.73659" lon="5.63828">
        <ele>379.86</ele>
        <time>2012-03-28T14:33:16Z</time>
      </trkpt>
      <trkpt lat="45.73668" lon="5.63838">
        <ele>378.9</ele>
        <time>2012-03-28T14:33:18Z</time>
      </trkpt>
      <trkpt lat="45.73674" lon="5.63852">
        <ele>378.42</ele>
        <time>2012-03-28T14:33:20Z</time>
      </trkpt>
      <trkpt lat="45.73677" lon="5.63867">
        <ele>377.94</ele>
        <time>2012-03-28T14:33:22Z</time>
      </trkpt>
      <trkpt lat="45.73682" lon="5.63894">
        <ele>376.49</ele>
        <time>2012-03-28T14:33:26Z</time>
      </trkpt>
      <trkpt lat="45.73684" lon="5.63932">
        <ele>375.53</ele>
        <time>2012-03-28T14:33:32Z</time>
      </trkpt>
      <trkpt lat="45.73681" lon="5.63952">
        <ele>374.09</ele>
        <time>2012-03-28T14:33:35Z</time>
      </trkpt>
      <trkpt lat="45.73677" lon="5.6397">
        <ele>372.65</ele>
        <time>2012-03-28T14:33:38Z</time>
      </trkpt>
      <trkpt lat="45.73681" lon="5.63986">
        <ele>371.69</ele>
        <time>2012-03-28T14:33:41Z</time>
      </trkpt>
      <trkpt lat="45.737" lon="5.64012">
        <ele>369.76</ele>
        <time>2012-03-28T14:34:03Z</time>
      </trkpt>
      <trkpt lat="45.737" lon="5.64013">
        <ele>370.24</ele>
        <time>2012-03-28T14:34:28Z</time>
      </trkpt>
      <trkpt lat="45.737" lon="5.64013">
        <ele>370.24</ele>
        <time>2012-03-28T14:34:47Z</time>
      </trkpt>
      <trkpt lat="45.73706" lon="5.64051">
        <ele>371.21</ele>
        <time>2012-03-28T14:35:21Z</time>
      </trkpt>
      <trkpt lat="45.7371" lon="5.64067">
        <ele>372.65</ele>
        <time>2012-03-28T14:35:45Z</time>
      </trkpt>
      <trkpt lat="45.73709" lon="5.64081">
        <ele>375.05</ele>
        <time>2012-03-28T14:35:56Z</time>
      </trkpt>
      <trkpt lat="45.73706" lon="5.64096">
        <ele>376.49</ele>
        <time>2012-03-28T14:36:09Z</time>
      </trkpt>
      <trkpt lat="45.73693" lon="5.64116">
        <ele>380.34</ele>
        <time>2012-03-28T14:36:36Z</time>
      </trkpt>
      <trkpt lat="45.73687" lon="5.6413">
        <ele>382.26</ele>
        <time>2012-03-28T14:37:07Z</time>
      </trkpt>
      <trkpt lat="45.73689" lon="5.64143">
        <ele>383.22</ele>
        <time>2012-03-28T14:37:20Z</time>
      </trkpt>
      <trkpt lat="45.73694" lon="5.64151">
        <ele>383.22</ele>
        <time>2012-03-28T14:37:25Z</time>
      </trkpt>
      <trkpt lat="45.73714" lon="5.6416">
        <ele>383.22</ele>
        <time>2012-03-28T14:37:36Z</time>
      </trkpt>
      <trkpt lat="45.73728" lon="5.64166">
        <ele>383.22</ele>
        <time>2012-03-28T14:37:46Z</time>
      </trkpt>
      <trkpt lat="45.73742" lon="5.64185">
        <ele>384.66</ele>
        <time>2012-03-28T14:37:53Z</time>
      </trkpt>
      <trkpt lat="45.73773" lon="5.64194">
        <ele>384.66</ele>
        <time>2012-03-28T14:38:07Z</time>
      </trkpt>
      <trkpt lat="45.73801" lon="5.64194">
        <ele>385.15</ele>
        <time>2012-03-28T14:38:19Z</time>
      </trkpt>
      <trkpt lat="45.73824" lon="5.64211">
        <ele>385.63</ele>
        <time>2012-03-28T14:38:33Z</time>
      </trkpt>
      <trkpt lat="45.73838" lon="5.64227">
        <ele>387.07</ele>
        <time>2012-03-28T14:38:46Z</time>
      </trkpt>
      <trkpt lat="45.7385" lon="5.64246">
        <ele>387.55</ele>
        <time>2012-03-28T14:38:59Z</time>
      </trkpt>
      <trkpt lat="45.73854" lon="5.64264">
        <ele>389.47</ele>
        <time>2012-03-28T14:39:26Z</time>
      </trkpt>
      <trkpt lat="45.73856" lon="5.64285">
        <ele>393.32</ele>
        <time>2012-03-28T14:40:54Z</time>
      </trkpt>
      <trkpt lat="45.73834" lon="5.64291">
        <ele>398.6</ele>
        <time>2012-03-28T14:41:27Z</time>
      </trkpt>
      <trkpt lat="45.7382" lon="5.64289">
        <ele>400.05</ele>
        <time>2012-03-28T14:41:52Z</time>
      </trkpt>
      <trkpt lat="45.73806" lon="5.64291">
        <ele>401.01</ele>
        <time>2012-03-28T14:42:25Z</time>
      </trkpt>
      <trkpt lat="45.73798" lon="5.64294">
        <ele>402.45</ele>
        <time>2012-03-28T14:42:30Z</time>
      </trkpt>
      <trkpt lat="45.73765" lon="5.64301">
        <ele>403.89</ele>
        <time>2012-03-28T14:42:41Z</time>
      </trkpt>
      <trkpt lat="45.73732" lon="5.64308">
        <ele>404.37</ele>
        <time>2012-03-28T14:42:51Z</time>
      </trkpt>
      <trkpt lat="45.73722" lon="5.64312">
        <ele>403.41</ele>
        <time>2012-03-28T14:42:57Z</time>
      </trkpt>
      <trkpt lat="45.73718" lon="5.64324">
        <ele>402.93</ele>
        <time>2012-03-28T14:43:04Z</time>
      </trkpt>
      <trkpt lat="45.73703" lon="5.64346">
        <ele>402.93</ele>
        <time>2012-03-28T14:43:17Z</time>
      </trkpt>
      <trkpt lat="45.73707" lon="5.64373">
        <ele>402.93</ele>
        <time>2012-03-28T14:43:30Z</time>
      </trkpt>
      <trkpt lat="45.73712" lon="5.6438">
        <ele>403.41</ele>
        <time>2012-03-28T14:43:35Z</time>
      </trkpt>
      <trkpt lat="45.73718" lon="5.64393">
        <ele>403.89</ele>
        <time>2012-03-28T14:43:41Z</time>
      </trkpt>
      <trkpt lat="45.73733" lon="5.64406">
        <ele>403.41</ele>
        <time>2012-03-28T14:44:16Z</time>
      </trkpt>
      <trkpt lat="45.73739" lon="5.64408">
        <ele>403.89</ele>
        <time>2012-03-28T14:45:00Z</time>
      </trkpt>
      <trkpt lat="45.73744" lon="5.64398">
        <ele>406.77</ele>
        <time>2012-03-28T14:45:36Z</time>
      </trkpt>
      <trkpt lat="45.73753" lon="5.64394">
        <ele>407.74</ele>
        <time>2012-03-28T14:45:47Z</time>
      </trkpt>
      <trkpt lat="45.73775" lon="5.64399">
        <ele>409.18</ele>
        <time>2012-03-28T14:46:27Z</time>
      </trkpt>
      <trkpt lat="45.73784" lon="5.64406">
        <ele>408.22</ele>
        <time>2012-03-28T14:46:30Z</time>
      </trkpt>
      <trkpt lat="45.73805" lon="5.64416">
        <ele>408.7</ele>
        <time>2012-03-28T14:46:37Z</time>
      </trkpt>
      <trkpt lat="45.73821" lon="5.64432">
        <ele>407.26</ele>
        <time>2012-03-28T14:46:41Z</time>
      </trkpt>
      <trkpt lat="45.73839" lon="5.64439">
        <ele>406.77</ele>
        <time>2012-03-28T14:46:47Z</time>
      </trkpt>
      <trkpt lat="45.73847" lon="5.64438">
        <ele>408.22</ele>
        <time>2012-03-28T14:46:51Z</time>
      </trkpt>
      <trkpt lat="45.73855" lon="5.64443">
        <ele>408.7</ele>
        <time>2012-03-28T14:46:54Z</time>
      </trkpt>
      <trkpt lat="45.73871" lon="5.64447">
        <ele>409.18</ele>
        <time>2012-03-28T14:47:00Z</time>
      </trkpt>
      <trkpt lat="45.73901" lon="5.6446">
        <ele>408.22</ele>
        <time>2012-03-28T14:47:09Z</time>
      </trkpt>
      <trkpt lat="45.7391" lon="5.64466">
        <ele>406.77</ele>
        <time>2012-03-28T14:47:11Z</time>
      </trkpt>
      <trkpt lat="45.7395" lon="5.64478">
        <ele>406.77</ele>
        <time>2012-03-28T14:47:36Z</time>
      </trkpt>
      <trkpt lat="45.73958" lon="5.64478">
        <ele>406.77</ele>
        <time>2012-03-28T14:47:49Z</time>
      </trkpt>
      <trkpt lat="45.73966" lon="5.64481">
        <ele>406.77</ele>
        <time>2012-03-28T14:47:57Z</time>
      </trkpt>
      <trkpt lat="45.73967" lon="5.64489">
        <ele>404.85</ele>
        <time>2012-03-28T14:48:03Z</time>
      </trkpt>
      <trkpt lat="45.73965" lon="5.64505">
        <ele>402.45</ele>
        <time>2012-03-28T14:48:44Z</time>
      </trkpt>
      <trkpt lat="45.7396" lon="5.64517">
        <ele>401.49</ele>
        <time>2012-03-28T14:50:43Z</time>
      </trkpt>
      <trkpt lat="45.73961" lon="5.64529">
        <ele>398.6</ele>
        <time>2012-03-28T14:50:56Z</time>
      </trkpt>
      <trkpt lat="45.73957" lon="5.64537">
        <ele>396.2</ele>
        <time>2012-03-28T14:51:01Z</time>
      </trkpt>
      <trkpt lat="45.73965" lon="5.64554">
        <ele>392.36</ele>
        <time>2012-03-28T14:51:15Z</time>
      </trkpt>
      <trkpt lat="45.73984" lon="5.64571">
        <ele>388.51</ele>
        <time>2012-03-28T14:51:25Z</time>
      </trkpt>
      <trkpt lat="45.73996" lon="5.64576">
        <ele>388.03</ele>
        <time>2012-03-28T14:51:31Z</time>
      </trkpt>
      <trkpt lat="45.74007" lon="5.64594">
        <ele>384.66</ele>
        <time>2012-03-28T14:51:39Z</time>
      </trkpt>
      <trkpt lat="45.74013" lon="5.64606">
        <ele>381.3</ele>
        <time>2012-03-28T14:51:45Z</time>
      </trkpt>
      <trkpt lat="45.74024" lon="5.64621">
        <ele>376.49</ele>
        <time>2012-03-28T14:52:17Z</time>
      </trkpt>
      <trkpt lat="45.7403" lon="5.64638">
        <ele>373.13</ele>
        <time>2012-03-28T14:52:23Z</time>
      </trkpt>
      <trkpt lat="45.74019" lon="5.64654">
        <ele>370.24</ele>
        <time>2012-03-28T14:52:33Z</time>
      </trkpt>
      <trkpt lat="45.74035" lon="5.64671">
        <ele>365.44</ele>
        <time>2012-03-28T14:53:18Z</time>
      </trkpt>
      <trkpt lat="45.74045" lon="5.64685">
        <ele>361.11</ele>
        <time>2012-03-28T14:53:25Z</time>
      </trkpt>
      <trkpt lat="45.74064" lon="5.64694">
        <ele>357.27</ele>
        <time>2012-03-28T14:53:32Z</time>
      </trkpt>
      <trkpt lat="45.7407" lon="5.64696">
        <ele>356.31</ele>
        <time>2012-03-28T14:53:34Z</time>
      </trkpt>
      <trkpt lat="45.74093" lon="5.64692">
        <ele>353.42</ele>
        <time>2012-03-28T14:53:41Z</time>
      </trkpt>
      <trkpt lat="45.74112" lon="5.64694">
        <ele>350.54</ele>
        <time>2012-03-28T14:53:45Z</time>
      </trkpt>
      <trkpt lat="45.74131" lon="5.64699">
        <ele>348.62</ele>
        <time>2012-03-28T14:53:50Z</time>
      </trkpt>
      <trkpt lat="45.74152" lon="5.64696">
        <ele>345.25</ele>
        <time>2012-03-28T14:53:57Z</time>
      </trkpt>
      <trkpt lat="45.74165" lon="5.64705">
        <ele>341.41</ele>
        <time>2012-03-28T14:54:01Z</time>
      </trkpt>
      <trkpt lat="45.74182" lon="5.64713">
        <ele>339.48</ele>
        <time>2012-03-28T14:54:05Z</time>
      </trkpt>
      <trkpt lat="45.74196" lon="5.64714">
        <ele>337.08</ele>
        <time>2012-03-28T14:54:08Z</time>
      </trkpt>
      <trkpt lat="45.7422" lon="5.64715">
        <ele>332.27</ele>
        <time>2012-03-28T14:54:13Z</time>
      </trkpt>
      <trkpt lat="45.74231" lon="5.64716">
        <ele>327.47</ele>
        <time>2012-03-28T14:54:20Z</time>
      </trkpt>
      <trkpt lat="45.74243" lon="5.64715">
        <ele>323.62</ele>
        <time>2012-03-28T14:54:28Z</time>
      </trkpt>
      <trkpt lat="45.74257" lon="5.64726">
        <ele>320.74</ele>
        <time>2012-03-28T14:54:33Z</time>
      </trkpt>
      <trkpt lat="45.74249" lon="5.64753">
        <ele>319.3</ele>
        <time>2012-03-28T14:54:39Z</time>
      </trkpt>
      <trkpt lat="45.74238" lon="5.64766">
        <ele>319.3</ele>
        <time>2012-03-28T14:54:43Z</time>
      </trkpt>
      <trkpt lat="45.74246" lon="5.64789">
        <ele>317.85</ele>
        <time>2012-03-28T14:54:50Z</time>
      </trkpt>
      <trkpt lat="45.74252" lon="5.64789">
        <ele>318.33</ele>
        <time>2012-03-28T14:54:53Z</time>
      </trkpt>
      <trkpt lat="45.74251" lon="5.64809">
        <ele>316.41</ele>
        <time>2012-03-28T14:54:58Z</time>
      </trkpt>
      <trkpt lat="45.74217" lon="5.64833">
        <ele>312.09</ele>
        <time>2012-03-28T14:55:08Z</time>
      </trkpt>
      <trkpt lat="45.74199" lon="5.64838">
        <ele>311.12</ele>
        <time>2012-03-28T14:55:11Z</time>
      </trkpt>
      <trkpt lat="45.74171" lon="5.64851">
        <ele>311.6</ele>
        <time>2012-03-28T14:55:19Z</time>
      </trkpt>
      <trkpt lat="45.74157" lon="5.64858">
        <ele>311.6</ele>
        <time>2012-03-28T14:55:23Z</time>
      </trkpt>
      <trkpt lat="45.74138" lon="5.6486">
        <ele>310.16</ele>
        <time>2012-03-28T14:55:27Z</time>
      </trkpt>
      <trkpt lat="45.74121" lon="5.64862">
        <ele>309.2</ele>
        <time>2012-03-28T14:55:30Z</time>
      </trkpt>
      <trkpt lat="45.74079" lon="5.64872">
        <ele>307.76</ele>
        <time>2012-03-28T14:55:40Z</time>
      </trkpt>
      <trkpt lat="45.74062" lon="5.64887">
        <ele>306.8</ele>
        <time>2012-03-28T14:55:44Z</time>
      </trkpt>
      <trkpt lat="45.74051" lon="5.64892">
        <ele>305.84</ele>
        <time>2012-03-28T14:55:47Z</time>
      </trkpt>
      <trkpt lat="45.74046" lon="5.64901">
        <ele>304.39</ele>
        <time>2012-03-28T14:55:51Z</time>
      </trkpt>
      <trkpt lat="45.74047" lon="5.64904">
        <ele>302.95</ele>
        <time>2012-03-28T14:56:03Z</time>
      </trkpt>
      <trkpt lat="45.74072" lon="5.64903">
        <ele>301.51</ele>
        <time>2012-03-28T14:56:26Z</time>
      </trkpt>
      <trkpt lat="45.74096" lon="5.64905">
        <ele>298.15</ele>
        <time>2012-03-28T14:56:32Z</time>
      </trkpt>
      <trkpt lat="45.7412" lon="5.64908">
        <ele>295.74</ele>
        <time>2012-03-28T14:56:39Z</time>
      </trkpt>
      <trkpt lat="45.74159" lon="5.64911">
        <ele>292.38</ele>
        <time>2012-03-28T14:56:47Z</time>
      </trkpt>
      <trkpt lat="45.74198" lon="5.64914">
        <ele>289.97</ele>
        <time>2012-03-28T14:56:54Z</time>
      </trkpt>
      <trkpt lat="45.74256" lon="5.64921">
        <ele>284.69</ele>
        <time>2012-03-28T14:57:04Z</time>
      </trkpt>
      <trkpt lat="45.74296" lon="5.64935">
        <ele>282.28</ele>
        <time>2012-03-28T14:57:13Z</time>
      </trkpt>
      <trkpt lat="45.74295" lon="5.64949">
        <ele>282.28</ele>
        <time>2012-03-28T14:57:15Z</time>
      </trkpt>
      <trkpt lat="45.74293" lon="5.64963">
        <ele>281.8</ele>
        <time>2012-03-28T14:57:17Z</time>
      </trkpt>
      <trkpt lat="45.74286" lon="5.64981">
        <ele>281.8</ele>
        <time>2012-03-28T14:57:20Z</time>
      </trkpt>
      <trkpt lat="45.74272" lon="5.6499">
        <ele>281.8</ele>
        <time>2012-03-28T14:57:23Z</time>
      </trkpt>
      <trkpt lat="45.7426" lon="5.64991">
        <ele>281.8</ele>
        <time>2012-03-28T14:57:25Z</time>
      </trkpt>
      <trkpt lat="45.74217" lon="5.64992">
        <ele>276.52</ele>
        <time>2012-03-28T14:57:34Z</time>
      </trkpt>
      <trkpt lat="45.74205" lon="5.64993">
        <ele>276.04</ele>
        <time>2012-03-28T14:57:36Z</time>
      </trkpt>
      <trkpt lat="45.74145" lon="5.6501">
        <ele>271.71</ele>
        <time>2012-03-28T14:57:46Z</time>
      </trkpt>
      <trkpt lat="45.74068" lon="5.65053">
        <ele>265.46</ele>
        <time>2012-03-28T14:57:59Z</time>
      </trkpt>
      <trkpt lat="45.74011" lon="5.6509">
        <ele>259.21</ele>
        <time>2012-03-28T14:58:11Z</time>
      </trkpt>
      <trkpt lat="45.73989" lon="5.65129">
        <ele>255.85</ele>
        <time>2012-03-28T14:58:19Z</time>
      </trkpt>
      <trkpt lat="45.73988" lon="5.65152">
        <ele>254.89</ele>
        <time>2012-03-28T14:58:22Z</time>
      </trkpt>
      <trkpt lat="45.73988" lon="5.65328">
        <ele>252.96</ele>
        <time>2012-03-28T14:58:43Z</time>
      </trkpt>
      <trkpt lat="45.73996" lon="5.65417">
        <ele>252.48</ele>
        <time>2012-03-28T14:58:59Z</time>
      </trkpt>
      <trkpt lat="45.74002" lon="5.65428">
        <ele>252.48</ele>
        <time>2012-03-28T14:59:24Z</time>
      </trkpt>
      <trkpt lat="45.74048" lon="5.65424">
        <ele>252.48</ele>
        <time>2012-03-28T14:59:36Z</time>
      </trkpt>
      <trkpt lat="45.74127" lon="5.65425">
        <ele>252.96</ele>
        <time>2012-03-28T14:59:53Z</time>
      </trkpt>
      <trkpt lat="45.7417" lon="5.65441">
        <ele>252.48</ele>
        <time>2012-03-28T15:00:02Z</time>
      </trkpt>
      <trkpt lat="45.74201" lon="5.65475">
        <ele>252</ele>
        <time>2012-03-28T15:00:09Z</time>
      </trkpt>
      <trkpt lat="45.74251" lon="5.65499">
        <ele>252</ele>
        <time>2012-03-28T15:00:18Z</time>
      </trkpt>
      <trkpt lat="45.74258" lon="5.6551">
        <ele>252</ele>
        <time>2012-03-28T15:00:20Z</time>
      </trkpt>
      <trkpt lat="45.74259" lon="5.65527">
        <ele>252</ele>
        <time>2012-03-28T15:00:22Z</time>
      </trkpt>
      <trkpt lat="45.74254" lon="5.65554">
        <ele>251.52</ele>
        <time>2012-03-28T15:00:25Z</time>
      </trkpt>
      <trkpt lat="45.74227" lon="5.65678">
        <ele>250.08</ele>
        <time>2012-03-28T15:00:38Z</time>
      </trkpt>
      <trkpt lat="45.74219" lon="5.65694">
        <ele>250.08</ele>
        <time>2012-03-28T15:00:40Z</time>
      </trkpt>
      <trkpt lat="45.74192" lon="5.65709">
        <ele>250.08</ele>
        <time>2012-03-28T15:00:44Z</time>
      </trkpt>
      <trkpt lat="45.74117" lon="5.65764">
        <ele>247.68</ele>
        <time>2012-03-28T15:00:56Z</time>
      </trkpt>
      <trkpt lat="45.74091" lon="5.65793">
        <ele>247.2</ele>
        <time>2012-03-28T15:01:01Z</time>
      </trkpt>
      <trkpt lat="45.7408" lon="5.6582">
        <ele>246.72</ele>
        <time>2012-03-28T15:01:05Z</time>
      </trkpt>
      <trkpt lat="45.74071" lon="5.65844">
        <ele>245.27</ele>
        <time>2012-03-28T15:01:09Z</time>
      </trkpt>
      <trkpt lat="45.74059" lon="5.65853">
        <ele>244.31</ele>
        <time>2012-03-28T15:01:12Z</time>
      </trkpt>
      <trkpt lat="45.74052" lon="5.65872">
        <ele>245.75</ele>
        <time>2012-03-28T15:01:16Z</time>
      </trkpt>
      <trkpt lat="45.74038" lon="5.65955">
        <ele>246.23</ele>
        <time>2012-03-28T15:01:32Z</time>
      </trkpt>
      <trkpt lat="45.74034" lon="5.65981">
        <ele>245.75</ele>
        <time>2012-03-28T15:01:36Z</time>
      </trkpt>
      <trkpt lat="45.74035" lon="5.66007">
        <ele>246.23</ele>
        <time>2012-03-28T15:01:40Z</time>
      </trkpt>
      <trkpt lat="45.74059" lon="5.66062">
        <ele>248.16</ele>
        <time>2012-03-28T15:01:53Z</time>
      </trkpt>
      <trkpt lat="45.74095" lon="5.66098">
        <ele>247.2</ele>
        <time>2012-03-28T15:02:06Z</time>
      </trkpt>
      <trkpt lat="45.74138" lon="5.6614">
        <ele>249.6</ele>
        <time>2012-03-28T15:02:20Z</time>
      </trkpt>
      <trkpt lat="45.74191" lon="5.66173">
        <ele>248.64</ele>
        <time>2012-03-28T15:02:36Z</time>
      </trkpt>
      <trkpt lat="45.74237" lon="5.66203">
        <ele>249.6</ele>
        <time>2012-03-28T15:02:48Z</time>
      </trkpt>
      <trkpt lat="45.74299" lon="5.66247">
        <ele>251.04</ele>
        <time>2012-03-28T15:03:06Z</time>
      </trkpt>
      <trkpt lat="45.74347" lon="5.6626">
        <ele>250.08</ele>
        <time>2012-03-28T15:03:18Z</time>
      </trkpt>
      <trkpt lat="45.74448" lon="5.66264">
        <ele>250.08</ele>
        <time>2012-03-28T15:03:37Z</time>
      </trkpt>
      <trkpt lat="45.74515" lon="5.66237">
        <ele>247.68</ele>
        <time>2012-03-28T15:03:50Z</time>
      </trkpt>
      <trkpt lat="45.74587" lon="5.66241">
        <ele>247.2</ele>
        <time>2012-03-28T15:04:03Z</time>
      </trkpt>
      <trkpt lat="45.74673" lon="5.66241">
        <ele>246.72</ele>
        <time>2012-03-28T15:04:19Z</time>
      </trkpt>
      <trkpt lat="45.74751" lon="5.66212">
        <ele>247.2</ele>
        <time>2012-03-28T15:04:35Z</time>
      </trkpt>
      <trkpt lat="45.7479" lon="5.6619">
        <ele>246.72</ele>
        <time>2012-03-28T15:04:44Z</time>
      </trkpt>
      <trkpt lat="45.74854" lon="5.66159">
        <ele>247.2</ele>
        <time>2012-03-28T15:04:58Z</time>
      </trkpt>
      <trkpt lat="45.74909" lon="5.66136">
        <ele>248.16</ele>
        <time>2012-03-28T15:05:12Z</time>
      </trkpt>
      <trkpt lat="45.7497" lon="5.66109">
        <ele>248.16</ele>
        <time>2012-03-28T15:05:28Z</time>
      </trkpt>
      <trkpt lat="45.75015" lon="5.6608">
        <ele>249.12</ele>
        <time>2012-03-28T15:05:41Z</time>
      </trkpt>
      <trkpt lat="45.75081" lon="5.66055">
        <ele>248.16</ele>
        <time>2012-03-28T15:05:57Z</time>
      </trkpt>
      <trkpt lat="45.75097" lon="5.66055">
        <ele>249.12</ele>
        <time>2012-03-28T15:06:01Z</time>
      </trkpt>
      <trkpt lat="45.75187" lon="5.66092">
        <ele>249.12</ele>
        <time>2012-03-28T15:06:23Z</time>
      </trkpt>
      <trkpt lat="45.75282" lon="5.66127">
        <ele>248.16</ele>
        <time>2012-03-28T15:06:46Z</time>
      </trkpt>
      <trkpt lat="45.75327" lon="5.66146">
        <ele>248.64</ele>
        <time>2012-03-28T15:07:00Z</time>
      </trkpt>
      <trkpt lat="45.75324" lon="5.66209">
        <ele>248.16</ele>
        <time>2012-03-28T15:07:15Z</time>
      </trkpt>
      <trkpt lat="45.75312" lon="5.66289">
        <ele>250.56</ele>
        <time>2012-03-28T15:07:33Z</time>
      </trkpt>
      <trkpt lat="45.75329" lon="5.6633">
        <ele>250.08</ele>
        <time>2012-03-28T15:07:45Z</time>
      </trkpt>
      <trkpt lat="45.75349" lon="5.66359">
        <ele>250.56</ele>
        <time>2012-03-28T15:07:58Z</time>
      </trkpt>
      <trkpt lat="45.75343" lon="5.66387">
        <ele>252</ele>
        <time>2012-03-28T15:09:58Z</time>
      </trkpt>
      <trkpt lat="45.75331" lon="5.66401">
        <ele>253.93</ele>
        <time>2012-03-28T15:10:04Z</time>
      </trkpt>
      <trkpt lat="45.75285" lon="5.66406">
        <ele>254.41</ele>
        <time>2012-03-28T15:10:18Z</time>
      </trkpt>
      <trkpt lat="45.75242" lon="5.66413">
        <ele>256.81</ele>
        <time>2012-03-28T15:10:32Z</time>
      </trkpt>
      <trkpt lat="45.75206" lon="5.66427">
        <ele>259.69</ele>
        <time>2012-03-28T15:10:47Z</time>
      </trkpt>
      <trkpt lat="45.75175" lon="5.6644">
        <ele>261.62</ele>
        <time>2012-03-28T15:11:01Z</time>
      </trkpt>
      <trkpt lat="45.75148" lon="5.66455">
        <ele>263.54</ele>
        <time>2012-03-28T15:11:15Z</time>
      </trkpt>
      <trkpt lat="45.75119" lon="5.66479">
        <ele>265.46</ele>
        <time>2012-03-28T15:11:31Z</time>
      </trkpt>
      <trkpt lat="45.75109" lon="5.66501">
        <ele>268.35</ele>
        <time>2012-03-28T15:11:44Z</time>
      </trkpt>
      <trkpt lat="45.75111" lon="5.66522">
        <ele>270.75</ele>
        <time>2012-03-28T15:11:54Z</time>
      </trkpt>
      <trkpt lat="45.75122" lon="5.66585">
        <ele>271.71</ele>
        <time>2012-03-28T15:12:36Z</time>
      </trkpt>
      <trkpt lat="45.7513" lon="5.66636">
        <ele>271.71</ele>
        <time>2012-03-28T15:12:52Z</time>
      </trkpt>
      <trkpt lat="45.75136" lon="5.66683">
        <ele>273.63</ele>
        <time>2012-03-28T15:13:09Z</time>
      </trkpt>
      <trkpt lat="45.75139" lon="5.6671">
        <ele>274.59</ele>
        <time>2012-03-28T15:13:21Z</time>
      </trkpt>
      <trkpt lat="45.75141" lon="5.66775">
        <ele>278.92</ele>
        <time>2012-03-28T15:13:51Z</time>
      </trkpt>
      <trkpt lat="45.75148" lon="5.66804">
        <ele>281.8</ele>
        <time>2012-03-28T15:14:09Z</time>
      </trkpt>
      <trkpt lat="45.75156" lon="5.6683">
        <ele>283.73</ele>
        <time>2012-03-28T15:14:25Z</time>
      </trkpt>
      <trkpt lat="45.75175" lon="5.66855">
        <ele>284.69</ele>
        <time>2012-03-28T15:14:41Z</time>
      </trkpt>
      <trkpt lat="45.75198" lon="5.6688">
        <ele>285.17</ele>
        <time>2012-03-28T15:14:57Z</time>
      </trkpt>
      <trkpt lat="45.7522" lon="5.66917">
        <ele>286.61</ele>
        <time>2012-03-28T15:15:15Z</time>
      </trkpt>
      <trkpt lat="45.75225" lon="5.66948">
        <ele>289.49</ele>
        <time>2012-03-28T15:15:30Z</time>
      </trkpt>
      <trkpt lat="45.75227" lon="5.66979">
        <ele>290.94</ele>
        <time>2012-03-28T15:15:46Z</time>
      </trkpt>
      <trkpt lat="45.7523" lon="5.67013">
        <ele>293.34</ele>
        <time>2012-03-28T15:16:03Z</time>
      </trkpt>
      <trkpt lat="45.75242" lon="5.67075">
        <ele>296.7</ele>
        <time>2012-03-28T15:16:34Z</time>
      </trkpt>
      <trkpt lat="45.75254" lon="5.67102">
        <ele>298.15</ele>
        <time>2012-03-28T15:16:49Z</time>
      </trkpt>
      <trkpt lat="45.75278" lon="5.67137">
        <ele>301.99</ele>
        <time>2012-03-28T15:17:11Z</time>
      </trkpt>
      <trkpt lat="45.75294" lon="5.67169">
        <ele>304.39</ele>
        <time>2012-03-28T15:17:29Z</time>
      </trkpt>
      <trkpt lat="45.75302" lon="5.67212">
        <ele>305.84</ele>
        <time>2012-03-28T15:17:44Z</time>
      </trkpt>
      <trkpt lat="45.75298" lon="5.67278">
        <ele>306.32</ele>
        <time>2012-03-28T15:18:00Z</time>
      </trkpt>
      <trkpt lat="45.75292" lon="5.67332">
        <ele>308.24</ele>
        <time>2012-03-28T15:18:16Z</time>
      </trkpt>
      <trkpt lat="45.75288" lon="5.67414">
        <ele>308.72</ele>
        <time>2012-03-28T15:18:43Z</time>
      </trkpt>
      <trkpt lat="45.75292" lon="5.67437">
        <ele>307.76</ele>
        <time>2012-03-28T15:18:46Z</time>
      </trkpt>
      <trkpt lat="45.75292" lon="5.67461">
        <ele>306.32</ele>
        <time>2012-03-28T15:18:49Z</time>
      </trkpt>
      <trkpt lat="45.75288" lon="5.67484">
        <ele>304.39</ele>
        <time>2012-03-28T15:18:52Z</time>
      </trkpt>
      <trkpt lat="45.75276" lon="5.67502">
        <ele>302.95</ele>
        <time>2012-03-28T15:19:21Z</time>
      </trkpt>
      <trkpt lat="45.75271" lon="5.67514">
        <ele>302.95</ele>
        <time>2012-03-28T15:19:25Z</time>
      </trkpt>
      <trkpt lat="45.75293" lon="5.67609">
        <ele>301.99</ele>
        <time>2012-03-28T15:19:41Z</time>
      </trkpt>
      <trkpt lat="45.75327" lon="5.67732">
        <ele>301.99</ele>
        <time>2012-03-28T15:19:57Z</time>
      </trkpt>
      <trkpt lat="45.75387" lon="5.67827">
        <ele>302.47</ele>
        <time>2012-03-28T15:20:13Z</time>
      </trkpt>
      <trkpt lat="45.75446" lon="5.67904">
        <ele>303.43</ele>
        <time>2012-03-28T15:20:30Z</time>
      </trkpt>
      <trkpt lat="45.75482" lon="5.67945">
        <ele>303.91</ele>
        <time>2012-03-28T15:20:40Z</time>
      </trkpt>
      <trkpt lat="45.75489" lon="5.67956">
        <ele>303.91</ele>
        <time>2012-03-28T15:20:42Z</time>
      </trkpt>
      <trkpt lat="45.75493" lon="5.67968">
        <ele>304.39</ele>
        <time>2012-03-28T15:20:44Z</time>
      </trkpt>
      <trkpt lat="45.75497" lon="5.67981">
        <ele>304.39</ele>
        <time>2012-03-28T15:20:46Z</time>
      </trkpt>
      <trkpt lat="45.75497" lon="5.67993">
        <ele>304.39</ele>
        <time>2012-03-28T15:20:48Z</time>
      </trkpt>
      <trkpt lat="45.75496" lon="5.68005">
        <ele>304.39</ele>
        <time>2012-03-28T15:20:50Z</time>
      </trkpt>
      <trkpt lat="45.75486" lon="5.68032">
        <ele>304.39</ele>
        <time>2012-03-28T15:20:56Z</time>
      </trkpt>
      <trkpt lat="45.75472" lon="5.68052">
        <ele>304.39</ele>
        <time>2012-03-28T15:21:01Z</time>
      </trkpt>
      <trkpt lat="45.75473" lon="5.68063">
        <ele>304.88</ele>
        <time>2012-03-28T15:21:03Z</time>
      </trkpt>
      <trkpt lat="45.75479" lon="5.6807">
        <ele>304.39</ele>
        <time>2012-03-28T15:21:05Z</time>
      </trkpt>
      <trkpt lat="45.75545" lon="5.6813">
        <ele>303.43</ele>
        <time>2012-03-28T15:21:20Z</time>
      </trkpt>
      <trkpt lat="45.75599" lon="5.6817">
        <ele>301.99</ele>
        <time>2012-03-28T15:21:34Z</time>
      </trkpt>
      <trkpt lat="45.75594" lon="5.68212">
        <ele>301.03</ele>
        <time>2012-03-28T15:21:41Z</time>
      </trkpt>
      <trkpt lat="45.7557" lon="5.68335">
        <ele>300.55</ele>
        <time>2012-03-28T15:21:56Z</time>
      </trkpt>
      <trkpt lat="45.75567" lon="5.68357">
        <ele>300.55</ele>
        <time>2012-03-28T15:21:59Z</time>
      </trkpt>
      <trkpt lat="45.7557" lon="5.68371">
        <ele>300.07</ele>
        <time>2012-03-28T15:22:01Z</time>
      </trkpt>
      <trkpt lat="45.75578" lon="5.68395">
        <ele>299.59</ele>
        <time>2012-03-28T15:22:04Z</time>
      </trkpt>
      <trkpt lat="45.75618" lon="5.68509">
        <ele>296.22</ele>
        <time>2012-03-28T15:22:16Z</time>
      </trkpt>
      <trkpt lat="45.75651" lon="5.68612">
        <ele>295.74</ele>
        <time>2012-03-28T15:22:29Z</time>
      </trkpt>
      <trkpt lat="45.75654" lon="5.68624">
        <ele>296.22</ele>
        <time>2012-03-28T15:22:34Z</time>
      </trkpt>
      <trkpt lat="45.75695" lon="5.68624">
        <ele>295.26</ele>
        <time>2012-03-28T15:22:45Z</time>
      </trkpt>
      <trkpt lat="45.75777" lon="5.68621">
        <ele>292.86</ele>
        <time>2012-03-28T15:23:00Z</time>
      </trkpt>
      <trkpt lat="45.75819" lon="5.68624">
        <ele>291.9</ele>
        <time>2012-03-28T15:23:15Z</time>
      </trkpt>
      <trkpt lat="45.75819" lon="5.68638">
        <ele>291.9</ele>
        <time>2012-03-28T15:23:18Z</time>
      </trkpt>
      <trkpt lat="45.75805" lon="5.68753">
        <ele>289.01</ele>
        <time>2012-03-28T15:23:32Z</time>
      </trkpt>
      <trkpt lat="45.758" lon="5.68775">
        <ele>288.53</ele>
        <time>2012-03-28T15:23:35Z</time>
      </trkpt>
      <trkpt lat="45.75789" lon="5.6882">
        <ele>287.57</ele>
        <time>2012-03-28T15:23:43Z</time>
      </trkpt>
      <trkpt lat="45.7583" lon="5.68854">
        <ele>286.61</ele>
        <time>2012-03-28T15:23:55Z</time>
      </trkpt>
      <trkpt lat="45.75808" lon="5.68904">
        <ele>288.05</ele>
        <time>2012-03-28T15:24:13Z</time>
      </trkpt>
    </trkseg>
  </trk>
</gpx>